<?xml version="1.0" encoding="UTF-8" standalone="no" ?>
<gpx xmlns="http://www.topografix.com/GPX/1/1" xmlns:xsi="http://www.w3.org/2001/XMLSchema-instance" xsi:schemaLocation="http://www.topografix.com/GPX/1/1 http://www.topografix.com/GPX/1/1/gpx.xsd" version="1.1" creator="VisuGPX - https://www.visugpx.com">
  <metadata>
    <name>La Capelaine 2014 à Lacapelle-Biron</name>
    <desc><![CDATA[Le circuit de 33kms de La Capelaine à Lacapelle-Biron.]]></desc>
  </metadata>
  <trk>
    <name><![CDATA[13-AVR-14 11:49:09]]></name>
    <trkseg>
      <trkpt lat="44.59866" lon="0.89719">
        <ele>154.43</ele>
        <time>2014-04-13T07:01:26Z</time>
      </trkpt>
      <trkpt lat="44.59867" lon="0.89721">
        <ele>153.47</ele>
        <time>2014-04-13T07:01:48Z</time>
      </trkpt>
      <trkpt lat="44.59867" lon="0.89722">
        <ele>153.95</ele>
        <time>2014-04-13T07:02:10Z</time>
      </trkpt>
      <trkpt lat="44.59868" lon="0.89727">
        <ele>154.91</ele>
        <time>2014-04-13T07:02:18Z</time>
      </trkpt>
      <trkpt lat="44.59891" lon="0.89746">
        <ele>155.39</ele>
        <time>2014-04-13T07:02:36Z</time>
      </trkpt>
      <trkpt lat="44.59904" lon="0.89752">
        <ele>157.31</ele>
        <time>2014-04-13T07:02:49Z</time>
      </trkpt>
      <trkpt lat="44.59932" lon="0.89749">
        <ele>159.24</ele>
        <time>2014-04-13T07:03:03Z</time>
      </trkpt>
      <trkpt lat="44.59963" lon="0.89762">
        <ele>162.6</ele>
        <time>2014-04-13T07:03:17Z</time>
      </trkpt>
      <trkpt lat="44.5997" lon="0.8978">
        <ele>161.64</ele>
        <time>2014-04-13T07:03:21Z</time>
      </trkpt>
      <trkpt lat="44.60011" lon="0.89854">
        <ele>157.79</ele>
        <time>2014-04-13T07:03:33Z</time>
      </trkpt>
      <trkpt lat="44.60017" lon="0.89876">
        <ele>158.27</ele>
        <time>2014-04-13T07:03:36Z</time>
      </trkpt>
      <trkpt lat="44.60023" lon="0.8993">
        <ele>156.83</ele>
        <time>2014-04-13T07:03:43Z</time>
      </trkpt>
      <trkpt lat="44.60021" lon="0.89945">
        <ele>156.83</ele>
        <time>2014-04-13T07:03:45Z</time>
      </trkpt>
      <trkpt lat="44.59978" lon="0.9007">
        <ele>157.31</ele>
        <time>2014-04-13T07:04:05Z</time>
      </trkpt>
      <trkpt lat="44.59953" lon="0.90134">
        <ele>159.24</ele>
        <time>2014-04-13T07:04:18Z</time>
      </trkpt>
      <trkpt lat="44.59965" lon="0.90184">
        <ele>165</ele>
        <time>2014-04-13T07:04:30Z</time>
      </trkpt>
      <trkpt lat="44.59987" lon="0.9025">
        <ele>170.77</ele>
        <time>2014-04-13T07:04:48Z</time>
      </trkpt>
      <trkpt lat="44.59993" lon="0.90312">
        <ele>174.62</ele>
        <time>2014-04-13T07:05:04Z</time>
      </trkpt>
      <trkpt lat="44.59999" lon="0.90377">
        <ele>177.98</ele>
        <time>2014-04-13T07:05:20Z</time>
      </trkpt>
      <trkpt lat="44.60004" lon="0.90449">
        <ele>178.94</ele>
        <time>2014-04-13T07:05:36Z</time>
      </trkpt>
      <trkpt lat="44.60007" lon="0.90536">
        <ele>181.83</ele>
        <time>2014-04-13T07:05:56Z</time>
      </trkpt>
      <trkpt lat="44.60005" lon="0.90577">
        <ele>186.15</ele>
        <time>2014-04-13T07:06:08Z</time>
      </trkpt>
      <trkpt lat="44.60008" lon="0.90612">
        <ele>191.92</ele>
        <time>2014-04-13T07:06:19Z</time>
      </trkpt>
      <trkpt lat="44.59998" lon="0.9065">
        <ele>193.84</ele>
        <time>2014-04-13T07:06:30Z</time>
      </trkpt>
      <trkpt lat="44.59976" lon="0.90689">
        <ele>191.92</ele>
        <time>2014-04-13T07:06:41Z</time>
      </trkpt>
      <trkpt lat="44.59961" lon="0.90756">
        <ele>191.44</ele>
        <time>2014-04-13T07:06:54Z</time>
      </trkpt>
      <trkpt lat="44.59948" lon="0.90841">
        <ele>194.32</ele>
        <time>2014-04-13T07:07:12Z</time>
      </trkpt>
      <trkpt lat="44.59938" lon="0.90896">
        <ele>197.21</ele>
        <time>2014-04-13T07:07:25Z</time>
      </trkpt>
      <trkpt lat="44.5992" lon="0.90933">
        <ele>199.61</ele>
        <time>2014-04-13T07:07:37Z</time>
      </trkpt>
      <trkpt lat="44.5989" lon="0.9097">
        <ele>203.46</ele>
        <time>2014-04-13T07:07:53Z</time>
      </trkpt>
      <trkpt lat="44.5985" lon="0.91017">
        <ele>210.19</ele>
        <time>2014-04-13T07:08:14Z</time>
      </trkpt>
      <trkpt lat="44.59819" lon="0.91071">
        <ele>214.99</ele>
        <time>2014-04-13T07:08:34Z</time>
      </trkpt>
      <trkpt lat="44.598" lon="0.91113">
        <ele>218.84</ele>
        <time>2014-04-13T07:08:49Z</time>
      </trkpt>
      <trkpt lat="44.59787" lon="0.91131">
        <ele>221.24</ele>
        <time>2014-04-13T07:08:58Z</time>
      </trkpt>
      <trkpt lat="44.5978" lon="0.91127">
        <ele>221.72</ele>
        <time>2014-04-13T07:09:04Z</time>
      </trkpt>
      <trkpt lat="44.59776" lon="0.91116">
        <ele>222.2</ele>
        <time>2014-04-13T07:09:08Z</time>
      </trkpt>
      <trkpt lat="44.59768" lon="0.91066">
        <ele>223.16</ele>
        <time>2014-04-13T07:09:21Z</time>
      </trkpt>
      <trkpt lat="44.59739" lon="0.91015">
        <ele>226.05</ele>
        <time>2014-04-13T07:09:35Z</time>
      </trkpt>
      <trkpt lat="44.59707" lon="0.90955">
        <ele>228.93</ele>
        <time>2014-04-13T07:09:49Z</time>
      </trkpt>
      <trkpt lat="44.5969" lon="0.90926">
        <ele>230.37</ele>
        <time>2014-04-13T07:09:57Z</time>
      </trkpt>
      <trkpt lat="44.59642" lon="0.9089">
        <ele>230.37</ele>
        <time>2014-04-13T07:10:06Z</time>
      </trkpt>
      <trkpt lat="44.59595" lon="0.90878">
        <ele>228.45</ele>
        <time>2014-04-13T07:10:13Z</time>
      </trkpt>
      <trkpt lat="44.5956" lon="0.90839">
        <ele>226.53</ele>
        <time>2014-04-13T07:10:20Z</time>
      </trkpt>
      <trkpt lat="44.5953" lon="0.90825">
        <ele>226.53</ele>
        <time>2014-04-13T07:10:25Z</time>
      </trkpt>
      <trkpt lat="44.59511" lon="0.90812">
        <ele>227.49</ele>
        <time>2014-04-13T07:10:28Z</time>
      </trkpt>
      <trkpt lat="44.59493" lon="0.90796">
        <ele>229.41</ele>
        <time>2014-04-13T07:10:32Z</time>
      </trkpt>
      <trkpt lat="44.59452" lon="0.90744">
        <ele>232.78</ele>
        <time>2014-04-13T07:10:45Z</time>
      </trkpt>
      <trkpt lat="44.59416" lon="0.9069">
        <ele>233.26</ele>
        <time>2014-04-13T07:10:58Z</time>
      </trkpt>
      <trkpt lat="44.59377" lon="0.90629">
        <ele>235.18</ele>
        <time>2014-04-13T07:11:12Z</time>
      </trkpt>
      <trkpt lat="44.5935" lon="0.90588">
        <ele>236.14</ele>
        <time>2014-04-13T07:11:22Z</time>
      </trkpt>
      <trkpt lat="44.59345" lon="0.90569">
        <ele>237.58</ele>
        <time>2014-04-13T07:11:26Z</time>
      </trkpt>
      <trkpt lat="44.59317" lon="0.90522">
        <ele>237.1</ele>
        <time>2014-04-13T07:11:36Z</time>
      </trkpt>
      <trkpt lat="44.59295" lon="0.9051">
        <ele>236.62</ele>
        <time>2014-04-13T07:11:41Z</time>
      </trkpt>
      <trkpt lat="44.59282" lon="0.90512">
        <ele>235.66</ele>
        <time>2014-04-13T07:11:44Z</time>
      </trkpt>
      <trkpt lat="44.59252" lon="0.90506">
        <ele>236.14</ele>
        <time>2014-04-13T07:11:52Z</time>
      </trkpt>
      <trkpt lat="44.59212" lon="0.90497">
        <ele>234.7</ele>
        <time>2014-04-13T07:12:02Z</time>
      </trkpt>
      <trkpt lat="44.59196" lon="0.90493">
        <ele>233.74</ele>
        <time>2014-04-13T07:12:06Z</time>
      </trkpt>
      <trkpt lat="44.59177" lon="0.90494">
        <ele>233.26</ele>
        <time>2014-04-13T07:12:10Z</time>
      </trkpt>
      <trkpt lat="44.59156" lon="0.905">
        <ele>232.3</ele>
        <time>2014-04-13T07:12:14Z</time>
      </trkpt>
      <trkpt lat="44.59143" lon="0.90508">
        <ele>231.33</ele>
        <time>2014-04-13T07:12:17Z</time>
      </trkpt>
      <trkpt lat="44.59123" lon="0.90503">
        <ele>229.41</ele>
        <time>2014-04-13T07:12:21Z</time>
      </trkpt>
      <trkpt lat="44.59115" lon="0.90494">
        <ele>227.97</ele>
        <time>2014-04-13T07:12:23Z</time>
      </trkpt>
      <trkpt lat="44.59092" lon="0.90462">
        <ele>225.09</ele>
        <time>2014-04-13T07:12:29Z</time>
      </trkpt>
      <trkpt lat="44.59068" lon="0.90431">
        <ele>225.09</ele>
        <time>2014-04-13T07:12:35Z</time>
      </trkpt>
      <trkpt lat="44.5906" lon="0.90422">
        <ele>225.09</ele>
        <time>2014-04-13T07:12:37Z</time>
      </trkpt>
      <trkpt lat="44.59051" lon="0.90415">
        <ele>225.57</ele>
        <time>2014-04-13T07:12:39Z</time>
      </trkpt>
      <trkpt lat="44.59005" lon="0.90387">
        <ele>227.97</ele>
        <time>2014-04-13T07:12:52Z</time>
      </trkpt>
      <trkpt lat="44.58974" lon="0.90367">
        <ele>228.93</ele>
        <time>2014-04-13T07:13:03Z</time>
      </trkpt>
      <trkpt lat="44.58947" lon="0.90334">
        <ele>233.26</ele>
        <time>2014-04-13T07:13:16Z</time>
      </trkpt>
      <trkpt lat="44.58921" lon="0.90293">
        <ele>234.7</ele>
        <time>2014-04-13T07:13:29Z</time>
      </trkpt>
      <trkpt lat="44.58922" lon="0.90234">
        <ele>233.26</ele>
        <time>2014-04-13T07:13:40Z</time>
      </trkpt>
      <trkpt lat="44.58911" lon="0.90155">
        <ele>231.33</ele>
        <time>2014-04-13T07:13:54Z</time>
      </trkpt>
      <trkpt lat="44.58902" lon="0.9013">
        <ele>230.37</ele>
        <time>2014-04-13T07:13:58Z</time>
      </trkpt>
      <trkpt lat="44.58898" lon="0.90116">
        <ele>229.41</ele>
        <time>2014-04-13T07:14:00Z</time>
      </trkpt>
      <trkpt lat="44.58895" lon="0.90083">
        <ele>228.45</ele>
        <time>2014-04-13T07:14:04Z</time>
      </trkpt>
      <trkpt lat="44.58916" lon="0.89946">
        <ele>226.53</ele>
        <time>2014-04-13T07:14:20Z</time>
      </trkpt>
      <trkpt lat="44.58919" lon="0.89857">
        <ele>225.09</ele>
        <time>2014-04-13T07:14:30Z</time>
      </trkpt>
      <trkpt lat="44.58908" lon="0.89826">
        <ele>224.12</ele>
        <time>2014-04-13T07:14:34Z</time>
      </trkpt>
      <trkpt lat="44.58857" lon="0.89743">
        <ele>222.68</ele>
        <time>2014-04-13T07:14:47Z</time>
      </trkpt>
      <trkpt lat="44.58851" lon="0.89706">
        <ele>222.2</ele>
        <time>2014-04-13T07:14:52Z</time>
      </trkpt>
      <trkpt lat="44.58851" lon="0.89661">
        <ele>221.72</ele>
        <time>2014-04-13T07:14:58Z</time>
      </trkpt>
      <trkpt lat="44.58837" lon="0.89624">
        <ele>221.24</ele>
        <time>2014-04-13T07:15:04Z</time>
      </trkpt>
      <trkpt lat="44.5883" lon="0.89614">
        <ele>220.76</ele>
        <time>2014-04-13T07:15:06Z</time>
      </trkpt>
      <trkpt lat="44.58808" lon="0.89612">
        <ele>219.8</ele>
        <time>2014-04-13T07:15:12Z</time>
      </trkpt>
      <trkpt lat="44.58802" lon="0.89618">
        <ele>219.32</ele>
        <time>2014-04-13T07:15:14Z</time>
      </trkpt>
      <trkpt lat="44.58791" lon="0.89614">
        <ele>217.88</ele>
        <time>2014-04-13T07:15:18Z</time>
      </trkpt>
      <trkpt lat="44.58778" lon="0.89603">
        <ele>216.91</ele>
        <time>2014-04-13T07:15:21Z</time>
      </trkpt>
      <trkpt lat="44.58765" lon="0.89593">
        <ele>215.95</ele>
        <time>2014-04-13T07:15:24Z</time>
      </trkpt>
      <trkpt lat="44.58754" lon="0.89575">
        <ele>214.03</ele>
        <time>2014-04-13T07:15:27Z</time>
      </trkpt>
      <trkpt lat="44.58744" lon="0.89564">
        <ele>213.07</ele>
        <time>2014-04-13T07:15:29Z</time>
      </trkpt>
      <trkpt lat="44.58733" lon="0.89547">
        <ele>211.63</ele>
        <time>2014-04-13T07:15:32Z</time>
      </trkpt>
      <trkpt lat="44.58716" lon="0.89499">
        <ele>206.82</ele>
        <time>2014-04-13T07:15:39Z</time>
      </trkpt>
      <trkpt lat="44.58719" lon="0.89408">
        <ele>200.57</ele>
        <time>2014-04-13T07:15:49Z</time>
      </trkpt>
      <trkpt lat="44.58708" lon="0.89368">
        <ele>196.73</ele>
        <time>2014-04-13T07:15:54Z</time>
      </trkpt>
      <trkpt lat="44.58704" lon="0.89352">
        <ele>195.28</ele>
        <time>2014-04-13T07:15:56Z</time>
      </trkpt>
      <trkpt lat="44.58698" lon="0.89314">
        <ele>191.44</ele>
        <time>2014-04-13T07:16:01Z</time>
      </trkpt>
      <trkpt lat="44.58675" lon="0.89288">
        <ele>189.52</ele>
        <time>2014-04-13T07:16:07Z</time>
      </trkpt>
      <trkpt lat="44.58646" lon="0.89266">
        <ele>192.88</ele>
        <time>2014-04-13T07:16:15Z</time>
      </trkpt>
      <trkpt lat="44.58639" lon="0.89261">
        <ele>196.25</ele>
        <time>2014-04-13T07:16:21Z</time>
      </trkpt>
      <trkpt lat="44.58632" lon="0.89257">
        <ele>198.17</ele>
        <time>2014-04-13T07:16:26Z</time>
      </trkpt>
      <trkpt lat="44.58606" lon="0.89251">
        <ele>204.9</ele>
        <time>2014-04-13T07:16:38Z</time>
      </trkpt>
      <trkpt lat="44.58594" lon="0.89259">
        <ele>206.34</ele>
        <time>2014-04-13T07:16:50Z</time>
      </trkpt>
      <trkpt lat="44.58597" lon="0.89257">
        <ele>210.67</ele>
        <time>2014-04-13T07:17:19Z</time>
      </trkpt>
      <trkpt lat="44.58592" lon="0.89262">
        <ele>209.7</ele>
        <time>2014-04-13T07:17:38Z</time>
      </trkpt>
      <trkpt lat="44.58589" lon="0.89266">
        <ele>210.19</ele>
        <time>2014-04-13T07:18:03Z</time>
      </trkpt>
      <trkpt lat="44.58591" lon="0.89267">
        <ele>210.19</ele>
        <time>2014-04-13T07:18:30Z</time>
      </trkpt>
      <trkpt lat="44.58589" lon="0.89266">
        <ele>211.15</ele>
        <time>2014-04-13T07:18:55Z</time>
      </trkpt>
      <trkpt lat="44.58586" lon="0.89267">
        <ele>214.03</ele>
        <time>2014-04-13T07:19:15Z</time>
      </trkpt>
      <trkpt lat="44.58584" lon="0.89268">
        <ele>212.11</ele>
        <time>2014-04-13T07:19:48Z</time>
      </trkpt>
      <trkpt lat="44.58577" lon="0.89266">
        <ele>214.99</ele>
        <time>2014-04-13T07:20:26Z</time>
      </trkpt>
      <trkpt lat="44.58582" lon="0.89265">
        <ele>213.07</ele>
        <time>2014-04-13T07:20:54Z</time>
      </trkpt>
      <trkpt lat="44.58584" lon="0.89266">
        <ele>207.3</ele>
        <time>2014-04-13T07:21:17Z</time>
      </trkpt>
      <trkpt lat="44.58586" lon="0.89264">
        <ele>204.42</ele>
        <time>2014-04-13T07:21:49Z</time>
      </trkpt>
      <trkpt lat="44.58588" lon="0.8926">
        <ele>205.86</ele>
        <time>2014-04-13T07:22:11Z</time>
      </trkpt>
      <trkpt lat="44.58586" lon="0.89264">
        <ele>207.78</ele>
        <time>2014-04-13T07:22:36Z</time>
      </trkpt>
      <trkpt lat="44.58585" lon="0.8927">
        <ele>210.67</ele>
        <time>2014-04-13T07:23:07Z</time>
      </trkpt>
      <trkpt lat="44.58585" lon="0.89269">
        <ele>215.95</ele>
        <time>2014-04-13T07:23:37Z</time>
      </trkpt>
      <trkpt lat="44.58585" lon="0.89263">
        <ele>212.59</ele>
        <time>2014-04-13T07:24:05Z</time>
      </trkpt>
      <trkpt lat="44.58585" lon="0.8926">
        <ele>212.59</ele>
        <time>2014-04-13T07:24:11Z</time>
      </trkpt>
      <trkpt lat="44.58602" lon="0.89253">
        <ele>211.15</ele>
        <time>2014-04-13T07:24:18Z</time>
      </trkpt>
      <trkpt lat="44.58609" lon="0.89255">
        <ele>209.7</ele>
        <time>2014-04-13T07:24:20Z</time>
      </trkpt>
      <trkpt lat="44.58639" lon="0.89262">
        <ele>202.49</ele>
        <time>2014-04-13T07:24:28Z</time>
      </trkpt>
      <trkpt lat="44.58641" lon="0.89261">
        <ele>201.05</ele>
        <time>2014-04-13T07:24:31Z</time>
      </trkpt>
      <trkpt lat="44.58644" lon="0.89258">
        <ele>199.61</ele>
        <time>2014-04-13T07:24:47Z</time>
      </trkpt>
      <trkpt lat="44.58652" lon="0.8926">
        <ele>201.53</ele>
        <time>2014-04-13T07:25:15Z</time>
      </trkpt>
      <trkpt lat="44.58653" lon="0.89262">
        <ele>203.46</ele>
        <time>2014-04-13T07:25:48Z</time>
      </trkpt>
      <trkpt lat="44.5865" lon="0.89261">
        <ele>202.98</ele>
        <time>2014-04-13T07:26:01Z</time>
      </trkpt>
      <trkpt lat="44.58646" lon="0.8926">
        <ele>206.34</ele>
        <time>2014-04-13T07:26:16Z</time>
      </trkpt>
      <trkpt lat="44.58643" lon="0.8926">
        <ele>206.34</ele>
        <time>2014-04-13T07:26:26Z</time>
      </trkpt>
      <trkpt lat="44.58634" lon="0.89256">
        <ele>206.82</ele>
        <time>2014-04-13T07:26:38Z</time>
      </trkpt>
      <trkpt lat="44.5862" lon="0.89253">
        <ele>209.22</ele>
        <time>2014-04-13T07:26:46Z</time>
      </trkpt>
      <trkpt lat="44.58595" lon="0.89256">
        <ele>211.15</ele>
        <time>2014-04-13T07:26:57Z</time>
      </trkpt>
      <trkpt lat="44.58586" lon="0.89264">
        <ele>211.15</ele>
        <time>2014-04-13T07:27:16Z</time>
      </trkpt>
      <trkpt lat="44.58562" lon="0.89274">
        <ele>208.74</ele>
        <time>2014-04-13T07:27:26Z</time>
      </trkpt>
      <trkpt lat="44.58523" lon="0.89288">
        <ele>206.82</ele>
        <time>2014-04-13T07:27:37Z</time>
      </trkpt>
      <trkpt lat="44.58505" lon="0.8927">
        <ele>204.9</ele>
        <time>2014-04-13T07:27:42Z</time>
      </trkpt>
      <trkpt lat="44.58498" lon="0.89263">
        <ele>204.42</ele>
        <time>2014-04-13T07:27:44Z</time>
      </trkpt>
      <trkpt lat="44.58495" lon="0.89218">
        <ele>202.01</ele>
        <time>2014-04-13T07:27:50Z</time>
      </trkpt>
      <trkpt lat="44.585" lon="0.89178">
        <ele>199.13</ele>
        <time>2014-04-13T07:27:54Z</time>
      </trkpt>
      <trkpt lat="44.58533" lon="0.89041">
        <ele>192.4</ele>
        <time>2014-04-13T07:28:08Z</time>
      </trkpt>
      <trkpt lat="44.58549" lon="0.88996">
        <ele>190.48</ele>
        <time>2014-04-13T07:28:13Z</time>
      </trkpt>
      <trkpt lat="44.58543" lon="0.88972">
        <ele>190</ele>
        <time>2014-04-13T07:28:17Z</time>
      </trkpt>
      <trkpt lat="44.58529" lon="0.88961">
        <ele>190.96</ele>
        <time>2014-04-13T07:28:20Z</time>
      </trkpt>
      <trkpt lat="44.58503" lon="0.88941">
        <ele>193.84</ele>
        <time>2014-04-13T07:28:26Z</time>
      </trkpt>
      <trkpt lat="44.58428" lon="0.88895">
        <ele>196.25</ele>
        <time>2014-04-13T07:28:41Z</time>
      </trkpt>
      <trkpt lat="44.58379" lon="0.88847">
        <ele>198.17</ele>
        <time>2014-04-13T07:28:52Z</time>
      </trkpt>
      <trkpt lat="44.58307" lon="0.88817">
        <ele>202.98</ele>
        <time>2014-04-13T07:29:08Z</time>
      </trkpt>
      <trkpt lat="44.58245" lon="0.88798">
        <ele>206.82</ele>
        <time>2014-04-13T07:29:24Z</time>
      </trkpt>
      <trkpt lat="44.58242" lon="0.88814">
        <ele>206.82</ele>
        <time>2014-04-13T07:29:29Z</time>
      </trkpt>
      <trkpt lat="44.58298" lon="0.88916">
        <ele>207.78</ele>
        <time>2014-04-13T07:29:48Z</time>
      </trkpt>
      <trkpt lat="44.58306" lon="0.88931">
        <ele>208.74</ele>
        <time>2014-04-13T07:29:52Z</time>
      </trkpt>
      <trkpt lat="44.58294" lon="0.88953">
        <ele>208.74</ele>
        <time>2014-04-13T07:30:00Z</time>
      </trkpt>
      <trkpt lat="44.58246" lon="0.88992">
        <ele>207.3</ele>
        <time>2014-04-13T07:30:13Z</time>
      </trkpt>
      <trkpt lat="44.58241" lon="0.88996">
        <ele>206.82</ele>
        <time>2014-04-13T07:30:14Z</time>
      </trkpt>
      <trkpt lat="44.5823" lon="0.89007">
        <ele>206.82</ele>
        <time>2014-04-13T07:30:17Z</time>
      </trkpt>
      <trkpt lat="44.58202" lon="0.89046">
        <ele>203.94</ele>
        <time>2014-04-13T07:30:25Z</time>
      </trkpt>
      <trkpt lat="44.58199" lon="0.89064">
        <ele>202.49</ele>
        <time>2014-04-13T07:30:28Z</time>
      </trkpt>
      <trkpt lat="44.58179" lon="0.89091">
        <ele>197.69</ele>
        <time>2014-04-13T07:30:36Z</time>
      </trkpt>
      <trkpt lat="44.58159" lon="0.89093">
        <ele>195.77</ele>
        <time>2014-04-13T07:30:40Z</time>
      </trkpt>
      <trkpt lat="44.58118" lon="0.89113">
        <ele>187.59</ele>
        <time>2014-04-13T07:30:48Z</time>
      </trkpt>
      <trkpt lat="44.58117" lon="0.8914">
        <ele>179.42</ele>
        <time>2014-04-13T07:30:54Z</time>
      </trkpt>
      <trkpt lat="44.58107" lon="0.89157">
        <ele>174.14</ele>
        <time>2014-04-13T07:30:57Z</time>
      </trkpt>
      <trkpt lat="44.58099" lon="0.89169">
        <ele>171.25</ele>
        <time>2014-04-13T07:30:59Z</time>
      </trkpt>
      <trkpt lat="44.58091" lon="0.89191">
        <ele>167.89</ele>
        <time>2014-04-13T07:31:02Z</time>
      </trkpt>
      <trkpt lat="44.58052" lon="0.8921">
        <ele>163.56</ele>
        <time>2014-04-13T07:31:09Z</time>
      </trkpt>
      <trkpt lat="44.58021" lon="0.89218">
        <ele>163.08</ele>
        <time>2014-04-13T07:31:14Z</time>
      </trkpt>
      <trkpt lat="44.58004" lon="0.89231">
        <ele>161.64</ele>
        <time>2014-04-13T07:31:17Z</time>
      </trkpt>
      <trkpt lat="44.57987" lon="0.89265">
        <ele>160.2</ele>
        <time>2014-04-13T07:31:22Z</time>
      </trkpt>
      <trkpt lat="44.57968" lon="0.89298">
        <ele>160.68</ele>
        <time>2014-04-13T07:31:28Z</time>
      </trkpt>
      <trkpt lat="44.5796" lon="0.89304">
        <ele>160.68</ele>
        <time>2014-04-13T07:31:30Z</time>
      </trkpt>
      <trkpt lat="44.57949" lon="0.89335">
        <ele>161.16</ele>
        <time>2014-04-13T07:31:36Z</time>
      </trkpt>
      <trkpt lat="44.57935" lon="0.8939">
        <ele>165.48</ele>
        <time>2014-04-13T07:31:48Z</time>
      </trkpt>
      <trkpt lat="44.57929" lon="0.89399">
        <ele>172.69</ele>
        <time>2014-04-13T07:31:57Z</time>
      </trkpt>
      <trkpt lat="44.57926" lon="0.89407">
        <ele>176.54</ele>
        <time>2014-04-13T07:32:01Z</time>
      </trkpt>
      <trkpt lat="44.57921" lon="0.89415">
        <ele>179.9</ele>
        <time>2014-04-13T07:32:05Z</time>
      </trkpt>
      <trkpt lat="44.57916" lon="0.89429">
        <ele>181.35</ele>
        <time>2014-04-13T07:32:10Z</time>
      </trkpt>
      <trkpt lat="44.57913" lon="0.89434">
        <ele>180.38</ele>
        <time>2014-04-13T07:32:12Z</time>
      </trkpt>
      <trkpt lat="44.57907" lon="0.89442">
        <ele>180.87</ele>
        <time>2014-04-13T07:32:16Z</time>
      </trkpt>
      <trkpt lat="44.57887" lon="0.8947">
        <ele>181.35</ele>
        <time>2014-04-13T07:32:28Z</time>
      </trkpt>
      <trkpt lat="44.57882" lon="0.89474">
        <ele>180.38</ele>
        <time>2014-04-13T07:32:30Z</time>
      </trkpt>
      <trkpt lat="44.57867" lon="0.8949">
        <ele>179.42</ele>
        <time>2014-04-13T07:32:39Z</time>
      </trkpt>
      <trkpt lat="44.57846" lon="0.89506">
        <ele>179.42</ele>
        <time>2014-04-13T07:32:49Z</time>
      </trkpt>
      <trkpt lat="44.57843" lon="0.89495">
        <ele>181.83</ele>
        <time>2014-04-13T07:32:59Z</time>
      </trkpt>
      <trkpt lat="44.57844" lon="0.8949">
        <ele>182.31</ele>
        <time>2014-04-13T07:33:01Z</time>
      </trkpt>
      <trkpt lat="44.57845" lon="0.89477">
        <ele>184.71</ele>
        <time>2014-04-13T07:33:07Z</time>
      </trkpt>
      <trkpt lat="44.57844" lon="0.89466">
        <ele>187.59</ele>
        <time>2014-04-13T07:33:12Z</time>
      </trkpt>
      <trkpt lat="44.57841" lon="0.89434">
        <ele>195.28</ele>
        <time>2014-04-13T07:33:24Z</time>
      </trkpt>
      <trkpt lat="44.5784" lon="0.89389">
        <ele>197.69</ele>
        <time>2014-04-13T07:33:35Z</time>
      </trkpt>
      <trkpt lat="44.57834" lon="0.89363">
        <ele>197.69</ele>
        <time>2014-04-13T07:33:39Z</time>
      </trkpt>
      <trkpt lat="44.57819" lon="0.89325">
        <ele>199.13</ele>
        <time>2014-04-13T07:33:46Z</time>
      </trkpt>
      <trkpt lat="44.57815" lon="0.89315">
        <ele>199.61</ele>
        <time>2014-04-13T07:33:48Z</time>
      </trkpt>
      <trkpt lat="44.578" lon="0.89264">
        <ele>199.13</ele>
        <time>2014-04-13T07:33:55Z</time>
      </trkpt>
      <trkpt lat="44.57794" lon="0.89247">
        <ele>198.65</ele>
        <time>2014-04-13T07:33:57Z</time>
      </trkpt>
      <trkpt lat="44.57782" lon="0.89216">
        <ele>197.21</ele>
        <time>2014-04-13T07:34:00Z</time>
      </trkpt>
      <trkpt lat="44.57768" lon="0.89146">
        <ele>192.4</ele>
        <time>2014-04-13T07:34:07Z</time>
      </trkpt>
      <trkpt lat="44.57758" lon="0.8912">
        <ele>190.48</ele>
        <time>2014-04-13T07:34:10Z</time>
      </trkpt>
      <trkpt lat="44.57734" lon="0.89088">
        <ele>188.08</ele>
        <time>2014-04-13T07:34:14Z</time>
      </trkpt>
      <trkpt lat="44.57676" lon="0.88986">
        <ele>181.35</ele>
        <time>2014-04-13T07:34:25Z</time>
      </trkpt>
      <trkpt lat="44.57653" lon="0.88967">
        <ele>180.87</ele>
        <time>2014-04-13T07:34:30Z</time>
      </trkpt>
      <trkpt lat="44.57615" lon="0.88944">
        <ele>179.9</ele>
        <time>2014-04-13T07:34:37Z</time>
      </trkpt>
      <trkpt lat="44.57603" lon="0.8894">
        <ele>179.9</ele>
        <time>2014-04-13T07:34:39Z</time>
      </trkpt>
      <trkpt lat="44.57548" lon="0.88934">
        <ele>177.98</ele>
        <time>2014-04-13T07:34:48Z</time>
      </trkpt>
      <trkpt lat="44.5751" lon="0.88898">
        <ele>174.62</ele>
        <time>2014-04-13T07:34:55Z</time>
      </trkpt>
      <trkpt lat="44.57492" lon="0.88879">
        <ele>173.17</ele>
        <time>2014-04-13T07:35:00Z</time>
      </trkpt>
      <trkpt lat="44.57466" lon="0.88875">
        <ele>172.21</ele>
        <time>2014-04-13T07:35:05Z</time>
      </trkpt>
      <trkpt lat="44.57451" lon="0.88861">
        <ele>170.77</ele>
        <time>2014-04-13T07:35:09Z</time>
      </trkpt>
      <trkpt lat="44.57437" lon="0.88809">
        <ele>167.89</ele>
        <time>2014-04-13T07:35:17Z</time>
      </trkpt>
      <trkpt lat="44.57432" lon="0.8879">
        <ele>167.89</ele>
        <time>2014-04-13T07:35:20Z</time>
      </trkpt>
      <trkpt lat="44.57418" lon="0.88753">
        <ele>169.33</ele>
        <time>2014-04-13T07:35:31Z</time>
      </trkpt>
      <trkpt lat="44.57417" lon="0.8875">
        <ele>169.33</ele>
        <time>2014-04-13T07:35:32Z</time>
      </trkpt>
      <trkpt lat="44.57384" lon="0.88733">
        <ele>172.69</ele>
        <time>2014-04-13T07:35:46Z</time>
      </trkpt>
      <trkpt lat="44.57343" lon="0.88721">
        <ele>176.06</ele>
        <time>2014-04-13T07:36:02Z</time>
      </trkpt>
      <trkpt lat="44.57306" lon="0.8873">
        <ele>178.94</ele>
        <time>2014-04-13T07:36:17Z</time>
      </trkpt>
      <trkpt lat="44.57284" lon="0.88711">
        <ele>183.75</ele>
        <time>2014-04-13T07:36:29Z</time>
      </trkpt>
      <trkpt lat="44.57266" lon="0.88697">
        <ele>184.23</ele>
        <time>2014-04-13T07:36:39Z</time>
      </trkpt>
      <trkpt lat="44.57241" lon="0.887">
        <ele>186.15</ele>
        <time>2014-04-13T07:36:48Z</time>
      </trkpt>
      <trkpt lat="44.57237" lon="0.88698">
        <ele>187.11</ele>
        <time>2014-04-13T07:36:51Z</time>
      </trkpt>
      <trkpt lat="44.57232" lon="0.88691">
        <ele>190.48</ele>
        <time>2014-04-13T07:37:05Z</time>
      </trkpt>
      <trkpt lat="44.5723" lon="0.88693">
        <ele>190.96</ele>
        <time>2014-04-13T07:37:22Z</time>
      </trkpt>
      <trkpt lat="44.57229" lon="0.88694">
        <ele>191.92</ele>
        <time>2014-04-13T07:37:42Z</time>
      </trkpt>
      <trkpt lat="44.57227" lon="0.88689">
        <ele>194.8</ele>
        <time>2014-04-13T07:38:01Z</time>
      </trkpt>
      <trkpt lat="44.5723" lon="0.88693">
        <ele>195.28</ele>
        <time>2014-04-13T07:38:16Z</time>
      </trkpt>
      <trkpt lat="44.57235" lon="0.88695">
        <ele>194.32</ele>
        <time>2014-04-13T07:38:43Z</time>
      </trkpt>
      <trkpt lat="44.57231" lon="0.88696">
        <ele>194.32</ele>
        <time>2014-04-13T07:39:00Z</time>
      </trkpt>
      <trkpt lat="44.5723" lon="0.88695">
        <ele>194.8</ele>
        <time>2014-04-13T07:39:20Z</time>
      </trkpt>
      <trkpt lat="44.57229" lon="0.88694">
        <ele>196.73</ele>
        <time>2014-04-13T07:39:48Z</time>
      </trkpt>
      <trkpt lat="44.57229" lon="0.88695">
        <ele>196.73</ele>
        <time>2014-04-13T07:39:51Z</time>
      </trkpt>
      <trkpt lat="44.57224" lon="0.88692">
        <ele>197.21</ele>
        <time>2014-04-13T07:39:55Z</time>
      </trkpt>
      <trkpt lat="44.57215" lon="0.88667">
        <ele>193.84</ele>
        <time>2014-04-13T07:40:00Z</time>
      </trkpt>
      <trkpt lat="44.57212" lon="0.88642">
        <ele>191.92</ele>
        <time>2014-04-13T07:40:04Z</time>
      </trkpt>
      <trkpt lat="44.57204" lon="0.88604">
        <ele>191.92</ele>
        <time>2014-04-13T07:40:11Z</time>
      </trkpt>
      <trkpt lat="44.57211" lon="0.88571">
        <ele>192.88</ele>
        <time>2014-04-13T07:40:18Z</time>
      </trkpt>
      <trkpt lat="44.57215" lon="0.88556">
        <ele>190.48</ele>
        <time>2014-04-13T07:40:25Z</time>
      </trkpt>
      <trkpt lat="44.57218" lon="0.88549">
        <ele>187.11</ele>
        <time>2014-04-13T07:40:34Z</time>
      </trkpt>
      <trkpt lat="44.57225" lon="0.88539">
        <ele>187.59</ele>
        <time>2014-04-13T07:40:39Z</time>
      </trkpt>
      <trkpt lat="44.57229" lon="0.8853">
        <ele>188.56</ele>
        <time>2014-04-13T07:40:42Z</time>
      </trkpt>
      <trkpt lat="44.57233" lon="0.88498">
        <ele>187.59</ele>
        <time>2014-04-13T07:40:49Z</time>
      </trkpt>
      <trkpt lat="44.5723" lon="0.88438">
        <ele>186.63</ele>
        <time>2014-04-13T07:40:57Z</time>
      </trkpt>
      <trkpt lat="44.57227" lon="0.88431">
        <ele>186.15</ele>
        <time>2014-04-13T07:40:58Z</time>
      </trkpt>
      <trkpt lat="44.57216" lon="0.88401">
        <ele>186.15</ele>
        <time>2014-04-13T07:41:02Z</time>
      </trkpt>
      <trkpt lat="44.57201" lon="0.88367">
        <ele>185.19</ele>
        <time>2014-04-13T07:41:08Z</time>
      </trkpt>
      <trkpt lat="44.57185" lon="0.88314">
        <ele>185.67</ele>
        <time>2014-04-13T07:41:17Z</time>
      </trkpt>
      <trkpt lat="44.57162" lon="0.88283">
        <ele>184.71</ele>
        <time>2014-04-13T07:41:24Z</time>
      </trkpt>
      <trkpt lat="44.57155" lon="0.88265">
        <ele>182.79</ele>
        <time>2014-04-13T07:41:28Z</time>
      </trkpt>
      <trkpt lat="44.57149" lon="0.88246">
        <ele>177.5</ele>
        <time>2014-04-13T07:41:41Z</time>
      </trkpt>
      <trkpt lat="44.57149" lon="0.88245">
        <ele>177.02</ele>
        <time>2014-04-13T07:41:42Z</time>
      </trkpt>
      <trkpt lat="44.57148" lon="0.88228">
        <ele>176.06</ele>
        <time>2014-04-13T07:41:47Z</time>
      </trkpt>
      <trkpt lat="44.57139" lon="0.88165">
        <ele>175.58</ele>
        <time>2014-04-13T07:41:55Z</time>
      </trkpt>
      <trkpt lat="44.57138" lon="0.88157">
        <ele>175.58</ele>
        <time>2014-04-13T07:41:56Z</time>
      </trkpt>
      <trkpt lat="44.57137" lon="0.88139">
        <ele>174.62</ele>
        <time>2014-04-13T07:41:58Z</time>
      </trkpt>
      <trkpt lat="44.57136" lon="0.88125">
        <ele>173.66</ele>
        <time>2014-04-13T07:42:00Z</time>
      </trkpt>
      <trkpt lat="44.57141" lon="0.88085">
        <ele>166.93</ele>
        <time>2014-04-13T07:42:07Z</time>
      </trkpt>
      <trkpt lat="44.57164" lon="0.88089">
        <ele>163.08</ele>
        <time>2014-04-13T07:42:18Z</time>
      </trkpt>
      <trkpt lat="44.57168" lon="0.88091">
        <ele>162.6</ele>
        <time>2014-04-13T07:42:21Z</time>
      </trkpt>
      <trkpt lat="44.57184" lon="0.88107">
        <ele>162.12</ele>
        <time>2014-04-13T07:42:35Z</time>
      </trkpt>
      <trkpt lat="44.572" lon="0.88117">
        <ele>164.04</ele>
        <time>2014-04-13T07:42:47Z</time>
      </trkpt>
      <trkpt lat="44.57214" lon="0.88121">
        <ele>163.56</ele>
        <time>2014-04-13T07:42:55Z</time>
      </trkpt>
      <trkpt lat="44.57236" lon="0.88128">
        <ele>165</ele>
        <time>2014-04-13T07:43:07Z</time>
      </trkpt>
      <trkpt lat="44.57251" lon="0.88138">
        <ele>167.89</ele>
        <time>2014-04-13T07:43:16Z</time>
      </trkpt>
      <trkpt lat="44.57261" lon="0.88149">
        <ele>169.81</ele>
        <time>2014-04-13T07:43:22Z</time>
      </trkpt>
      <trkpt lat="44.57278" lon="0.88176">
        <ele>173.66</ele>
        <time>2014-04-13T07:43:35Z</time>
      </trkpt>
      <trkpt lat="44.57293" lon="0.88204">
        <ele>175.58</ele>
        <time>2014-04-13T07:43:47Z</time>
      </trkpt>
      <trkpt lat="44.57294" lon="0.88206">
        <ele>176.06</ele>
        <time>2014-04-13T07:43:48Z</time>
      </trkpt>
      <trkpt lat="44.57299" lon="0.88207">
        <ele>177.02</ele>
        <time>2014-04-13T07:43:51Z</time>
      </trkpt>
      <trkpt lat="44.57312" lon="0.88212">
        <ele>177.98</ele>
        <time>2014-04-13T07:43:56Z</time>
      </trkpt>
      <trkpt lat="44.57335" lon="0.88228">
        <ele>177.98</ele>
        <time>2014-04-13T07:44:04Z</time>
      </trkpt>
      <trkpt lat="44.57349" lon="0.88233">
        <ele>176.54</ele>
        <time>2014-04-13T07:44:07Z</time>
      </trkpt>
      <trkpt lat="44.57372" lon="0.8824">
        <ele>174.14</ele>
        <time>2014-04-13T07:44:15Z</time>
      </trkpt>
      <trkpt lat="44.57374" lon="0.8824">
        <ele>175.58</ele>
        <time>2014-04-13T07:44:26Z</time>
      </trkpt>
      <trkpt lat="44.5738" lon="0.88238">
        <ele>180.87</ele>
        <time>2014-04-13T07:44:42Z</time>
      </trkpt>
      <trkpt lat="44.57386" lon="0.88247">
        <ele>186.15</ele>
        <time>2014-04-13T07:44:55Z</time>
      </trkpt>
      <trkpt lat="44.57393" lon="0.88253">
        <ele>189.04</ele>
        <time>2014-04-13T07:45:08Z</time>
      </trkpt>
      <trkpt lat="44.57398" lon="0.8826">
        <ele>190.96</ele>
        <time>2014-04-13T07:45:22Z</time>
      </trkpt>
      <trkpt lat="44.5741" lon="0.88266">
        <ele>189.52</ele>
        <time>2014-04-13T07:45:32Z</time>
      </trkpt>
      <trkpt lat="44.57415" lon="0.88268">
        <ele>189.52</ele>
        <time>2014-04-13T07:45:36Z</time>
      </trkpt>
      <trkpt lat="44.57418" lon="0.88269">
        <ele>190</ele>
        <time>2014-04-13T07:45:38Z</time>
      </trkpt>
      <trkpt lat="44.57422" lon="0.88272">
        <ele>191.44</ele>
        <time>2014-04-13T07:45:41Z</time>
      </trkpt>
      <trkpt lat="44.57438" lon="0.88278">
        <ele>190.48</ele>
        <time>2014-04-13T07:45:47Z</time>
      </trkpt>
      <trkpt lat="44.57449" lon="0.88278">
        <ele>189.04</ele>
        <time>2014-04-13T07:45:50Z</time>
      </trkpt>
      <trkpt lat="44.5746" lon="0.88278">
        <ele>186.63</ele>
        <time>2014-04-13T07:45:52Z</time>
      </trkpt>
      <trkpt lat="44.57472" lon="0.88281">
        <ele>184.23</ele>
        <time>2014-04-13T07:45:54Z</time>
      </trkpt>
      <trkpt lat="44.57503" lon="0.8829">
        <ele>178.94</ele>
        <time>2014-04-13T07:46:01Z</time>
      </trkpt>
      <trkpt lat="44.57534" lon="0.88295">
        <ele>178.94</ele>
        <time>2014-04-13T07:46:11Z</time>
      </trkpt>
      <trkpt lat="44.57574" lon="0.88285">
        <ele>176.54</ele>
        <time>2014-04-13T07:46:22Z</time>
      </trkpt>
      <trkpt lat="44.57589" lon="0.88278">
        <ele>175.58</ele>
        <time>2014-04-13T07:46:26Z</time>
      </trkpt>
      <trkpt lat="44.57603" lon="0.8822">
        <ele>167.89</ele>
        <time>2014-04-13T07:46:35Z</time>
      </trkpt>
      <trkpt lat="44.576" lon="0.88165">
        <ele>164.04</ele>
        <time>2014-04-13T07:46:42Z</time>
      </trkpt>
      <trkpt lat="44.57599" lon="0.88144">
        <ele>163.56</ele>
        <time>2014-04-13T07:46:45Z</time>
      </trkpt>
      <trkpt lat="44.57602" lon="0.88129">
        <ele>162.6</ele>
        <time>2014-04-13T07:46:47Z</time>
      </trkpt>
      <trkpt lat="44.5762" lon="0.8804">
        <ele>155.87</ele>
        <time>2014-04-13T07:46:57Z</time>
      </trkpt>
      <trkpt lat="44.57623" lon="0.88022">
        <ele>154.91</ele>
        <time>2014-04-13T07:46:59Z</time>
      </trkpt>
      <trkpt lat="44.57622" lon="0.87988">
        <ele>152.51</ele>
        <time>2014-04-13T07:47:03Z</time>
      </trkpt>
      <trkpt lat="44.576" lon="0.87922">
        <ele>145.78</ele>
        <time>2014-04-13T07:47:13Z</time>
      </trkpt>
      <trkpt lat="44.57594" lon="0.87906">
        <ele>143.85</ele>
        <time>2014-04-13T07:47:17Z</time>
      </trkpt>
      <trkpt lat="44.57593" lon="0.87896">
        <ele>142.41</ele>
        <time>2014-04-13T07:47:23Z</time>
      </trkpt>
      <trkpt lat="44.57592" lon="0.8788">
        <ele>141.45</ele>
        <time>2014-04-13T07:47:28Z</time>
      </trkpt>
      <trkpt lat="44.57593" lon="0.87869">
        <ele>139.53</ele>
        <time>2014-04-13T07:47:30Z</time>
      </trkpt>
      <trkpt lat="44.57606" lon="0.87844">
        <ele>136.64</ele>
        <time>2014-04-13T07:47:35Z</time>
      </trkpt>
      <trkpt lat="44.57623" lon="0.87833">
        <ele>134.24</ele>
        <time>2014-04-13T07:47:39Z</time>
      </trkpt>
      <trkpt lat="44.57632" lon="0.87833">
        <ele>133.76</ele>
        <time>2014-04-13T07:47:41Z</time>
      </trkpt>
      <trkpt lat="44.57693" lon="0.8785">
        <ele>130.88</ele>
        <time>2014-04-13T07:47:55Z</time>
      </trkpt>
      <trkpt lat="44.57722" lon="0.87853">
        <ele>130.4</ele>
        <time>2014-04-13T07:48:01Z</time>
      </trkpt>
      <trkpt lat="44.57788" lon="0.87831">
        <ele>131.36</ele>
        <time>2014-04-13T07:48:15Z</time>
      </trkpt>
      <trkpt lat="44.57853" lon="0.87791">
        <ele>131.84</ele>
        <time>2014-04-13T07:48:30Z</time>
      </trkpt>
      <trkpt lat="44.57876" lon="0.87774">
        <ele>131.84</ele>
        <time>2014-04-13T07:48:35Z</time>
      </trkpt>
      <trkpt lat="44.579" lon="0.87741">
        <ele>130.88</ele>
        <time>2014-04-13T07:48:42Z</time>
      </trkpt>
      <trkpt lat="44.57918" lon="0.87693">
        <ele>131.36</ele>
        <time>2014-04-13T07:48:50Z</time>
      </trkpt>
      <trkpt lat="44.57923" lon="0.87668">
        <ele>131.36</ele>
        <time>2014-04-13T07:48:54Z</time>
      </trkpt>
      <trkpt lat="44.57943" lon="0.87622">
        <ele>132.32</ele>
        <time>2014-04-13T07:49:05Z</time>
      </trkpt>
      <trkpt lat="44.57963" lon="0.87586">
        <ele>130.4</ele>
        <time>2014-04-13T07:49:15Z</time>
      </trkpt>
      <trkpt lat="44.57957" lon="0.87545">
        <ele>131.84</ele>
        <time>2014-04-13T07:49:26Z</time>
      </trkpt>
      <trkpt lat="44.57963" lon="0.87512">
        <ele>134.72</ele>
        <time>2014-04-13T07:49:36Z</time>
      </trkpt>
      <trkpt lat="44.57964" lon="0.87497">
        <ele>133.76</ele>
        <time>2014-04-13T07:49:48Z</time>
      </trkpt>
      <trkpt lat="44.57967" lon="0.87483">
        <ele>133.28</ele>
        <time>2014-04-13T07:49:56Z</time>
      </trkpt>
      <trkpt lat="44.57973" lon="0.87461">
        <ele>134.72</ele>
        <time>2014-04-13T07:50:04Z</time>
      </trkpt>
      <trkpt lat="44.57961" lon="0.87438">
        <ele>138.57</ele>
        <time>2014-04-13T07:50:17Z</time>
      </trkpt>
      <trkpt lat="44.57949" lon="0.87427">
        <ele>141.45</ele>
        <time>2014-04-13T07:50:29Z</time>
      </trkpt>
      <trkpt lat="44.57945" lon="0.87426">
        <ele>142.41</ele>
        <time>2014-04-13T07:50:32Z</time>
      </trkpt>
      <trkpt lat="44.57931" lon="0.87421">
        <ele>145.3</ele>
        <time>2014-04-13T07:50:44Z</time>
      </trkpt>
      <trkpt lat="44.57915" lon="0.87418">
        <ele>147.7</ele>
        <time>2014-04-13T07:50:58Z</time>
      </trkpt>
      <trkpt lat="44.57903" lon="0.87419">
        <ele>150.1</ele>
        <time>2014-04-13T07:51:10Z</time>
      </trkpt>
      <trkpt lat="44.57883" lon="0.8742">
        <ele>154.91</ele>
        <time>2014-04-13T07:51:24Z</time>
      </trkpt>
      <trkpt lat="44.57862" lon="0.87415">
        <ele>158.27</ele>
        <time>2014-04-13T07:51:37Z</time>
      </trkpt>
      <trkpt lat="44.57853" lon="0.87414">
        <ele>158.27</ele>
        <time>2014-04-13T07:51:43Z</time>
      </trkpt>
      <trkpt lat="44.57844" lon="0.87414">
        <ele>158.27</ele>
        <time>2014-04-13T07:51:48Z</time>
      </trkpt>
      <trkpt lat="44.57824" lon="0.87411">
        <ele>162.12</ele>
        <time>2014-04-13T07:52:02Z</time>
      </trkpt>
      <trkpt lat="44.57807" lon="0.87408">
        <ele>166.45</ele>
        <time>2014-04-13T07:52:14Z</time>
      </trkpt>
      <trkpt lat="44.57796" lon="0.87402">
        <ele>167.41</ele>
        <time>2014-04-13T07:52:25Z</time>
      </trkpt>
      <trkpt lat="44.57792" lon="0.87401">
        <ele>167.89</ele>
        <time>2014-04-13T07:52:28Z</time>
      </trkpt>
      <trkpt lat="44.57773" lon="0.87399">
        <ele>170.77</ele>
        <time>2014-04-13T07:52:39Z</time>
      </trkpt>
      <trkpt lat="44.5777" lon="0.87398">
        <ele>171.25</ele>
        <time>2014-04-13T07:52:41Z</time>
      </trkpt>
      <trkpt lat="44.57767" lon="0.87394">
        <ele>172.21</ele>
        <time>2014-04-13T07:52:45Z</time>
      </trkpt>
      <trkpt lat="44.57746" lon="0.87382">
        <ele>177.5</ele>
        <time>2014-04-13T07:53:02Z</time>
      </trkpt>
      <trkpt lat="44.57744" lon="0.87379">
        <ele>177.98</ele>
        <time>2014-04-13T07:53:05Z</time>
      </trkpt>
      <trkpt lat="44.57726" lon="0.87357">
        <ele>181.35</ele>
        <time>2014-04-13T07:53:22Z</time>
      </trkpt>
      <trkpt lat="44.57709" lon="0.87331">
        <ele>185.19</ele>
        <time>2014-04-13T07:53:38Z</time>
      </trkpt>
      <trkpt lat="44.57687" lon="0.87313">
        <ele>187.59</ele>
        <time>2014-04-13T07:53:53Z</time>
      </trkpt>
      <trkpt lat="44.5768" lon="0.87314">
        <ele>186.15</ele>
        <time>2014-04-13T07:53:56Z</time>
      </trkpt>
      <trkpt lat="44.57668" lon="0.87308">
        <ele>184.71</ele>
        <time>2014-04-13T07:54:02Z</time>
      </trkpt>
      <trkpt lat="44.57637" lon="0.87289">
        <ele>182.79</ele>
        <time>2014-04-13T07:54:17Z</time>
      </trkpt>
      <trkpt lat="44.57609" lon="0.8727">
        <ele>182.79</ele>
        <time>2014-04-13T07:54:29Z</time>
      </trkpt>
      <trkpt lat="44.57599" lon="0.8726">
        <ele>182.79</ele>
        <time>2014-04-13T07:54:33Z</time>
      </trkpt>
      <trkpt lat="44.576" lon="0.87239">
        <ele>182.31</ele>
        <time>2014-04-13T07:54:38Z</time>
      </trkpt>
      <trkpt lat="44.57623" lon="0.87161">
        <ele>184.23</ele>
        <time>2014-04-13T07:54:58Z</time>
      </trkpt>
      <trkpt lat="44.57611" lon="0.87111">
        <ele>185.67</ele>
        <time>2014-04-13T07:55:11Z</time>
      </trkpt>
      <trkpt lat="44.5759" lon="0.87033">
        <ele>181.83</ele>
        <time>2014-04-13T07:55:25Z</time>
      </trkpt>
      <trkpt lat="44.57572" lon="0.86925">
        <ele>179.9</ele>
        <time>2014-04-13T07:55:40Z</time>
      </trkpt>
      <trkpt lat="44.57568" lon="0.86863">
        <ele>180.87</ele>
        <time>2014-04-13T07:55:51Z</time>
      </trkpt>
      <trkpt lat="44.57564" lon="0.86845">
        <ele>180.38</ele>
        <time>2014-04-13T07:55:54Z</time>
      </trkpt>
      <trkpt lat="44.57539" lon="0.86757">
        <ele>176.06</ele>
        <time>2014-04-13T07:56:07Z</time>
      </trkpt>
      <trkpt lat="44.57539" lon="0.86753">
        <ele>175.58</ele>
        <time>2014-04-13T07:56:08Z</time>
      </trkpt>
      <trkpt lat="44.5755" lon="0.86743">
        <ele>175.58</ele>
        <time>2014-04-13T07:56:12Z</time>
      </trkpt>
      <trkpt lat="44.57561" lon="0.86738">
        <ele>176.06</ele>
        <time>2014-04-13T07:56:15Z</time>
      </trkpt>
      <trkpt lat="44.5764" lon="0.86711">
        <ele>173.66</ele>
        <time>2014-04-13T07:56:31Z</time>
      </trkpt>
      <trkpt lat="44.57739" lon="0.86717">
        <ele>170.77</ele>
        <time>2014-04-13T07:56:44Z</time>
      </trkpt>
      <trkpt lat="44.57849" lon="0.86762">
        <ele>166.93</ele>
        <time>2014-04-13T07:56:56Z</time>
      </trkpt>
      <trkpt lat="44.57965" lon="0.86809">
        <ele>162.6</ele>
        <time>2014-04-13T07:57:11Z</time>
      </trkpt>
      <trkpt lat="44.58054" lon="0.86844">
        <ele>159.24</ele>
        <time>2014-04-13T07:57:26Z</time>
      </trkpt>
      <trkpt lat="44.58057" lon="0.86857">
        <ele>158.27</ele>
        <time>2014-04-13T07:57:30Z</time>
      </trkpt>
      <trkpt lat="44.58055" lon="0.86872">
        <ele>158.27</ele>
        <time>2014-04-13T07:57:33Z</time>
      </trkpt>
      <trkpt lat="44.58064" lon="0.86907">
        <ele>158.27</ele>
        <time>2014-04-13T07:57:39Z</time>
      </trkpt>
      <trkpt lat="44.58076" lon="0.86924">
        <ele>158.27</ele>
        <time>2014-04-13T07:57:42Z</time>
      </trkpt>
      <trkpt lat="44.58096" lon="0.86957">
        <ele>156.83</ele>
        <time>2014-04-13T07:57:46Z</time>
      </trkpt>
      <trkpt lat="44.58106" lon="0.86971">
        <ele>156.35</ele>
        <time>2014-04-13T07:57:48Z</time>
      </trkpt>
      <trkpt lat="44.5812" lon="0.86991">
        <ele>155.87</ele>
        <time>2014-04-13T07:57:51Z</time>
      </trkpt>
      <trkpt lat="44.58134" lon="0.87067">
        <ele>155.39</ele>
        <time>2014-04-13T07:58:00Z</time>
      </trkpt>
      <trkpt lat="44.58135" lon="0.87074">
        <ele>155.87</ele>
        <time>2014-04-13T07:58:01Z</time>
      </trkpt>
      <trkpt lat="44.58138" lon="0.87094">
        <ele>156.83</ele>
        <time>2014-04-13T07:58:04Z</time>
      </trkpt>
      <trkpt lat="44.58146" lon="0.87141">
        <ele>158.75</ele>
        <time>2014-04-13T07:58:10Z</time>
      </trkpt>
      <trkpt lat="44.58147" lon="0.87186">
        <ele>160.2</ele>
        <time>2014-04-13T07:58:15Z</time>
      </trkpt>
      <trkpt lat="44.58151" lon="0.87226">
        <ele>160.68</ele>
        <time>2014-04-13T07:58:20Z</time>
      </trkpt>
      <trkpt lat="44.58167" lon="0.87285">
        <ele>153.95</ele>
        <time>2014-04-13T07:58:31Z</time>
      </trkpt>
      <trkpt lat="44.5817" lon="0.87312">
        <ele>150.58</ele>
        <time>2014-04-13T07:58:36Z</time>
      </trkpt>
      <trkpt lat="44.58176" lon="0.87341">
        <ele>146.26</ele>
        <time>2014-04-13T07:58:40Z</time>
      </trkpt>
      <trkpt lat="44.58202" lon="0.87386">
        <ele>137.13</ele>
        <time>2014-04-13T07:58:48Z</time>
      </trkpt>
      <trkpt lat="44.58205" lon="0.87387">
        <ele>136.64</ele>
        <time>2014-04-13T07:58:49Z</time>
      </trkpt>
      <trkpt lat="44.58224" lon="0.8739">
        <ele>135.2</ele>
        <time>2014-04-13T07:59:00Z</time>
      </trkpt>
      <trkpt lat="44.58227" lon="0.87395">
        <ele>136.16</ele>
        <time>2014-04-13T07:59:04Z</time>
      </trkpt>
      <trkpt lat="44.58233" lon="0.87402">
        <ele>137.61</ele>
        <time>2014-04-13T07:59:13Z</time>
      </trkpt>
      <trkpt lat="44.58243" lon="0.87416">
        <ele>137.61</ele>
        <time>2014-04-13T07:59:22Z</time>
      </trkpt>
      <trkpt lat="44.58258" lon="0.87423">
        <ele>135.2</ele>
        <time>2014-04-13T07:59:30Z</time>
      </trkpt>
      <trkpt lat="44.5827" lon="0.87444">
        <ele>136.64</ele>
        <time>2014-04-13T07:59:41Z</time>
      </trkpt>
      <trkpt lat="44.58272" lon="0.87471">
        <ele>139.05</ele>
        <time>2014-04-13T07:59:53Z</time>
      </trkpt>
      <trkpt lat="44.58271" lon="0.87474">
        <ele>139.05</ele>
        <time>2014-04-13T07:59:54Z</time>
      </trkpt>
      <trkpt lat="44.58268" lon="0.875">
        <ele>141.45</ele>
        <time>2014-04-13T08:00:05Z</time>
      </trkpt>
      <trkpt lat="44.58269" lon="0.87523">
        <ele>147.22</ele>
        <time>2014-04-13T08:00:13Z</time>
      </trkpt>
      <trkpt lat="44.58274" lon="0.87562">
        <ele>155.87</ele>
        <time>2014-04-13T08:00:28Z</time>
      </trkpt>
      <trkpt lat="44.58285" lon="0.87592">
        <ele>158.27</ele>
        <time>2014-04-13T08:00:39Z</time>
      </trkpt>
      <trkpt lat="44.58302" lon="0.8762">
        <ele>159.72</ele>
        <time>2014-04-13T08:00:51Z</time>
      </trkpt>
      <trkpt lat="44.58318" lon="0.87641">
        <ele>161.64</ele>
        <time>2014-04-13T08:01:04Z</time>
      </trkpt>
      <trkpt lat="44.58323" lon="0.87644">
        <ele>160.68</ele>
        <time>2014-04-13T08:01:06Z</time>
      </trkpt>
      <trkpt lat="44.58339" lon="0.87667">
        <ele>164.52</ele>
        <time>2014-04-13T08:01:20Z</time>
      </trkpt>
      <trkpt lat="44.58343" lon="0.87675">
        <ele>166.45</ele>
        <time>2014-04-13T08:01:25Z</time>
      </trkpt>
      <trkpt lat="44.58347" lon="0.877">
        <ele>168.37</ele>
        <time>2014-04-13T08:01:37Z</time>
      </trkpt>
      <trkpt lat="44.5835" lon="0.87712">
        <ele>169.81</ele>
        <time>2014-04-13T08:01:43Z</time>
      </trkpt>
      <trkpt lat="44.58352" lon="0.8772">
        <ele>170.77</ele>
        <time>2014-04-13T08:01:47Z</time>
      </trkpt>
      <trkpt lat="44.5836" lon="0.87753">
        <ele>171.73</ele>
        <time>2014-04-13T08:02:02Z</time>
      </trkpt>
      <trkpt lat="44.5837" lon="0.87791">
        <ele>174.14</ele>
        <time>2014-04-13T08:02:14Z</time>
      </trkpt>
      <trkpt lat="44.58375" lon="0.87804">
        <ele>174.62</ele>
        <time>2014-04-13T08:02:18Z</time>
      </trkpt>
      <trkpt lat="44.58395" lon="0.87853">
        <ele>171.25</ele>
        <time>2014-04-13T08:02:32Z</time>
      </trkpt>
      <trkpt lat="44.58408" lon="0.87868">
        <ele>171.73</ele>
        <time>2014-04-13T08:02:40Z</time>
      </trkpt>
      <trkpt lat="44.58428" lon="0.87889">
        <ele>169.33</ele>
        <time>2014-04-13T08:02:52Z</time>
      </trkpt>
      <trkpt lat="44.58446" lon="0.87896">
        <ele>167.41</ele>
        <time>2014-04-13T08:02:56Z</time>
      </trkpt>
      <trkpt lat="44.58465" lon="0.87894">
        <ele>165</ele>
        <time>2014-04-13T08:03:00Z</time>
      </trkpt>
      <trkpt lat="44.58501" lon="0.87873">
        <ele>161.16</ele>
        <time>2014-04-13T08:03:06Z</time>
      </trkpt>
      <trkpt lat="44.58532" lon="0.87866">
        <ele>157.79</ele>
        <time>2014-04-13T08:03:10Z</time>
      </trkpt>
      <trkpt lat="44.5857" lon="0.87879">
        <ele>153.47</ele>
        <time>2014-04-13T08:03:15Z</time>
      </trkpt>
      <trkpt lat="44.58589" lon="0.87894">
        <ele>152.03</ele>
        <time>2014-04-13T08:03:18Z</time>
      </trkpt>
      <trkpt lat="44.58601" lon="0.87901">
        <ele>151.06</ele>
        <time>2014-04-13T08:03:20Z</time>
      </trkpt>
      <trkpt lat="44.58623" lon="0.87908">
        <ele>150.1</ele>
        <time>2014-04-13T08:03:24Z</time>
      </trkpt>
      <trkpt lat="44.58667" lon="0.87904">
        <ele>148.66</ele>
        <time>2014-04-13T08:03:30Z</time>
      </trkpt>
      <trkpt lat="44.58692" lon="0.87906">
        <ele>148.66</ele>
        <time>2014-04-13T08:03:33Z</time>
      </trkpt>
      <trkpt lat="44.58708" lon="0.87911">
        <ele>148.66</ele>
        <time>2014-04-13T08:03:35Z</time>
      </trkpt>
      <trkpt lat="44.58741" lon="0.87923">
        <ele>148.66</ele>
        <time>2014-04-13T08:03:39Z</time>
      </trkpt>
      <trkpt lat="44.5878" lon="0.87932">
        <ele>147.22</ele>
        <time>2014-04-13T08:03:44Z</time>
      </trkpt>
      <trkpt lat="44.58793" lon="0.87938">
        <ele>146.74</ele>
        <time>2014-04-13T08:03:46Z</time>
      </trkpt>
      <trkpt lat="44.58831" lon="0.87967">
        <ele>146.26</ele>
        <time>2014-04-13T08:03:52Z</time>
      </trkpt>
      <trkpt lat="44.58887" lon="0.88064">
        <ele>144.82</ele>
        <time>2014-04-13T08:04:05Z</time>
      </trkpt>
      <trkpt lat="44.58901" lon="0.88073">
        <ele>144.82</ele>
        <time>2014-04-13T08:04:08Z</time>
      </trkpt>
      <trkpt lat="44.5892" lon="0.88095">
        <ele>147.7</ele>
        <time>2014-04-13T08:04:13Z</time>
      </trkpt>
      <trkpt lat="44.5894" lon="0.88123">
        <ele>152.03</ele>
        <time>2014-04-13T08:04:19Z</time>
      </trkpt>
      <trkpt lat="44.58957" lon="0.88149">
        <ele>156.83</ele>
        <time>2014-04-13T08:04:25Z</time>
      </trkpt>
      <trkpt lat="44.58981" lon="0.88168">
        <ele>160.68</ele>
        <time>2014-04-13T08:04:34Z</time>
      </trkpt>
      <trkpt lat="44.58993" lon="0.88159">
        <ele>162.12</ele>
        <time>2014-04-13T08:04:43Z</time>
      </trkpt>
      <trkpt lat="44.59017" lon="0.8814">
        <ele>165.96</ele>
        <time>2014-04-13T08:05:00Z</time>
      </trkpt>
      <trkpt lat="44.59033" lon="0.88126">
        <ele>166.45</ele>
        <time>2014-04-13T08:05:09Z</time>
      </trkpt>
      <trkpt lat="44.5907" lon="0.88156">
        <ele>166.45</ele>
        <time>2014-04-13T08:05:24Z</time>
      </trkpt>
      <trkpt lat="44.59098" lon="0.88148">
        <ele>166.45</ele>
        <time>2014-04-13T08:05:34Z</time>
      </trkpt>
      <trkpt lat="44.59121" lon="0.8812">
        <ele>169.33</ele>
        <time>2014-04-13T08:05:47Z</time>
      </trkpt>
      <trkpt lat="44.5914" lon="0.88084">
        <ele>172.69</ele>
        <time>2014-04-13T08:05:59Z</time>
      </trkpt>
      <trkpt lat="44.59162" lon="0.88044">
        <ele>175.58</ele>
        <time>2014-04-13T08:06:13Z</time>
      </trkpt>
      <trkpt lat="44.59182" lon="0.88017">
        <ele>180.87</ele>
        <time>2014-04-13T08:06:25Z</time>
      </trkpt>
      <trkpt lat="44.59203" lon="0.87989">
        <ele>183.75</ele>
        <time>2014-04-13T08:06:38Z</time>
      </trkpt>
      <trkpt lat="44.59225" lon="0.87958">
        <ele>185.19</ele>
        <time>2014-04-13T08:06:50Z</time>
      </trkpt>
      <trkpt lat="44.59242" lon="0.87928">
        <ele>187.11</ele>
        <time>2014-04-13T08:07:02Z</time>
      </trkpt>
      <trkpt lat="44.59265" lon="0.87897">
        <ele>190</ele>
        <time>2014-04-13T08:07:17Z</time>
      </trkpt>
      <trkpt lat="44.5929" lon="0.87871">
        <ele>192.88</ele>
        <time>2014-04-13T08:07:32Z</time>
      </trkpt>
      <trkpt lat="44.5932" lon="0.87849">
        <ele>194.32</ele>
        <time>2014-04-13T08:07:47Z</time>
      </trkpt>
      <trkpt lat="44.59367" lon="0.87822">
        <ele>192.88</ele>
        <time>2014-04-13T08:08:02Z</time>
      </trkpt>
      <trkpt lat="44.5937" lon="0.87819">
        <ele>192.88</ele>
        <time>2014-04-13T08:08:03Z</time>
      </trkpt>
      <trkpt lat="44.59391" lon="0.87787">
        <ele>190.48</ele>
        <time>2014-04-13T08:08:09Z</time>
      </trkpt>
      <trkpt lat="44.59415" lon="0.87748">
        <ele>187.59</ele>
        <time>2014-04-13T08:08:14Z</time>
      </trkpt>
      <trkpt lat="44.5944" lon="0.87719">
        <ele>185.19</ele>
        <time>2014-04-13T08:08:18Z</time>
      </trkpt>
      <trkpt lat="44.59487" lon="0.87637">
        <ele>181.35</ele>
        <time>2014-04-13T08:08:29Z</time>
      </trkpt>
      <trkpt lat="44.59495" lon="0.8763">
        <ele>180.87</ele>
        <time>2014-04-13T08:08:33Z</time>
      </trkpt>
      <trkpt lat="44.59513" lon="0.87645">
        <ele>180.87</ele>
        <time>2014-04-13T08:08:39Z</time>
      </trkpt>
      <trkpt lat="44.59523" lon="0.87659">
        <ele>181.35</ele>
        <time>2014-04-13T08:08:42Z</time>
      </trkpt>
      <trkpt lat="44.59543" lon="0.87682">
        <ele>182.31</ele>
        <time>2014-04-13T08:08:47Z</time>
      </trkpt>
      <trkpt lat="44.59565" lon="0.87706">
        <ele>185.19</ele>
        <time>2014-04-13T08:08:53Z</time>
      </trkpt>
      <trkpt lat="44.5958" lon="0.87696">
        <ele>188.08</ele>
        <time>2014-04-13T08:08:58Z</time>
      </trkpt>
      <trkpt lat="44.59615" lon="0.87594">
        <ele>187.11</ele>
        <time>2014-04-13T08:09:14Z</time>
      </trkpt>
      <trkpt lat="44.5964" lon="0.87537">
        <ele>184.71</ele>
        <time>2014-04-13T08:09:22Z</time>
      </trkpt>
      <trkpt lat="44.59653" lon="0.87522">
        <ele>183.27</ele>
        <time>2014-04-13T08:09:26Z</time>
      </trkpt>
      <trkpt lat="44.59667" lon="0.87508">
        <ele>181.83</ele>
        <time>2014-04-13T08:09:31Z</time>
      </trkpt>
      <trkpt lat="44.59681" lon="0.8749">
        <ele>180.87</ele>
        <time>2014-04-13T08:09:35Z</time>
      </trkpt>
      <trkpt lat="44.59735" lon="0.87416">
        <ele>173.66</ele>
        <time>2014-04-13T08:09:48Z</time>
      </trkpt>
      <trkpt lat="44.59754" lon="0.87386">
        <ele>171.25</ele>
        <time>2014-04-13T08:09:52Z</time>
      </trkpt>
      <trkpt lat="44.59786" lon="0.87331">
        <ele>168.85</ele>
        <time>2014-04-13T08:09:58Z</time>
      </trkpt>
      <trkpt lat="44.59847" lon="0.8724">
        <ele>165</ele>
        <time>2014-04-13T08:10:08Z</time>
      </trkpt>
      <trkpt lat="44.59858" lon="0.8722">
        <ele>165</ele>
        <time>2014-04-13T08:10:10Z</time>
      </trkpt>
      <trkpt lat="44.59904" lon="0.87193">
        <ele>162.6</ele>
        <time>2014-04-13T08:10:16Z</time>
      </trkpt>
      <trkpt lat="44.5992" lon="0.87202">
        <ele>161.64</ele>
        <time>2014-04-13T08:10:18Z</time>
      </trkpt>
      <trkpt lat="44.59935" lon="0.87215">
        <ele>161.64</ele>
        <time>2014-04-13T08:10:20Z</time>
      </trkpt>
      <trkpt lat="44.59961" lon="0.87251">
        <ele>160.68</ele>
        <time>2014-04-13T08:10:24Z</time>
      </trkpt>
      <trkpt lat="44.59992" lon="0.87293">
        <ele>158.27</ele>
        <time>2014-04-13T08:10:29Z</time>
      </trkpt>
      <trkpt lat="44.60004" lon="0.87302">
        <ele>156.83</ele>
        <time>2014-04-13T08:10:32Z</time>
      </trkpt>
      <trkpt lat="44.60005" lon="0.87308">
        <ele>152.99</ele>
        <time>2014-04-13T08:10:43Z</time>
      </trkpt>
      <trkpt lat="44.60005" lon="0.87301">
        <ele>156.35</ele>
        <time>2014-04-13T08:11:14Z</time>
      </trkpt>
      <trkpt lat="44.60005" lon="0.873">
        <ele>157.79</ele>
        <time>2014-04-13T08:11:41Z</time>
      </trkpt>
      <trkpt lat="44.60008" lon="0.873">
        <ele>159.72</ele>
        <time>2014-04-13T08:12:21Z</time>
      </trkpt>
      <trkpt lat="44.6001" lon="0.87301">
        <ele>162.6</ele>
        <time>2014-04-13T08:12:58Z</time>
      </trkpt>
      <trkpt lat="44.60005" lon="0.87303">
        <ele>158.27</ele>
        <time>2014-04-13T08:13:36Z</time>
      </trkpt>
      <trkpt lat="44.60003" lon="0.87302">
        <ele>156.83</ele>
        <time>2014-04-13T08:14:27Z</time>
      </trkpt>
      <trkpt lat="44.60003" lon="0.87303">
        <ele>157.31</ele>
        <time>2014-04-13T08:15:01Z</time>
      </trkpt>
      <trkpt lat="44.60003" lon="0.87303">
        <ele>154.91</ele>
        <time>2014-04-13T08:15:40Z</time>
      </trkpt>
      <trkpt lat="44.60005" lon="0.87307">
        <ele>152.51</ele>
        <time>2014-04-13T08:16:10Z</time>
      </trkpt>
      <trkpt lat="44.60006" lon="0.87306">
        <ele>155.39</ele>
        <time>2014-04-13T08:16:40Z</time>
      </trkpt>
      <trkpt lat="44.60008" lon="0.87307">
        <ele>156.83</ele>
        <time>2014-04-13T08:16:59Z</time>
      </trkpt>
      <trkpt lat="44.60008" lon="0.87307">
        <ele>156.35</ele>
        <time>2014-04-13T08:17:24Z</time>
      </trkpt>
      <trkpt lat="44.60008" lon="0.87307">
        <ele>154.91</ele>
        <time>2014-04-13T08:17:42Z</time>
      </trkpt>
      <trkpt lat="44.60009" lon="0.87304">
        <ele>155.87</ele>
        <time>2014-04-13T08:18:05Z</time>
      </trkpt>
      <trkpt lat="44.60008" lon="0.87305">
        <ele>156.35</ele>
        <time>2014-04-13T08:18:20Z</time>
      </trkpt>
      <trkpt lat="44.6001" lon="0.87301">
        <ele>160.2</ele>
        <time>2014-04-13T08:18:44Z</time>
      </trkpt>
      <trkpt lat="44.60008" lon="0.87301">
        <ele>159.72</ele>
        <time>2014-04-13T08:19:03Z</time>
      </trkpt>
      <trkpt lat="44.60008" lon="0.87303">
        <ele>158.75</ele>
        <time>2014-04-13T08:19:22Z</time>
      </trkpt>
      <trkpt lat="44.60009" lon="0.87303">
        <ele>157.31</ele>
        <time>2014-04-13T08:19:45Z</time>
      </trkpt>
      <trkpt lat="44.60008" lon="0.87302">
        <ele>157.31</ele>
        <time>2014-04-13T08:20:11Z</time>
      </trkpt>
      <trkpt lat="44.60007" lon="0.87302">
        <ele>156.83</ele>
        <time>2014-04-13T08:20:35Z</time>
      </trkpt>
      <trkpt lat="44.60006" lon="0.873">
        <ele>154.43</ele>
        <time>2014-04-13T08:21:03Z</time>
      </trkpt>
      <trkpt lat="44.60006" lon="0.87301">
        <ele>152.99</ele>
        <time>2014-04-13T08:21:27Z</time>
      </trkpt>
      <trkpt lat="44.60005" lon="0.87301">
        <ele>152.99</ele>
        <time>2014-04-13T08:22:02Z</time>
      </trkpt>
      <trkpt lat="44.60005" lon="0.873">
        <ele>152.03</ele>
        <time>2014-04-13T08:22:22Z</time>
      </trkpt>
      <trkpt lat="44.60005" lon="0.873">
        <ele>150.1</ele>
        <time>2014-04-13T08:22:46Z</time>
      </trkpt>
      <trkpt lat="44.60005" lon="0.87301">
        <ele>152.03</ele>
        <time>2014-04-13T08:23:04Z</time>
      </trkpt>
      <trkpt lat="44.60006" lon="0.87304">
        <ele>155.39</ele>
        <time>2014-04-13T08:23:25Z</time>
      </trkpt>
      <trkpt lat="44.60008" lon="0.87304">
        <ele>155.87</ele>
        <time>2014-04-13T08:23:44Z</time>
      </trkpt>
      <trkpt lat="44.60008" lon="0.87305">
        <ele>156.35</ele>
        <time>2014-04-13T08:24:11Z</time>
      </trkpt>
      <trkpt lat="44.60008" lon="0.87305">
        <ele>157.79</ele>
        <time>2014-04-13T08:24:31Z</time>
      </trkpt>
      <trkpt lat="44.60008" lon="0.87304">
        <ele>157.31</ele>
        <time>2014-04-13T08:24:52Z</time>
      </trkpt>
      <trkpt lat="44.60008" lon="0.87303">
        <ele>158.27</ele>
        <time>2014-04-13T08:25:15Z</time>
      </trkpt>
      <trkpt lat="44.60008" lon="0.87302">
        <ele>158.27</ele>
        <time>2014-04-13T08:25:17Z</time>
      </trkpt>
      <trkpt lat="44.60016" lon="0.87296">
        <ele>156.35</ele>
        <time>2014-04-13T08:25:22Z</time>
      </trkpt>
      <trkpt lat="44.60028" lon="0.87292">
        <ele>155.87</ele>
        <time>2014-04-13T08:25:26Z</time>
      </trkpt>
      <trkpt lat="44.60032" lon="0.8727">
        <ele>155.39</ele>
        <time>2014-04-13T08:25:30Z</time>
      </trkpt>
      <trkpt lat="44.60027" lon="0.87154">
        <ele>152.99</ele>
        <time>2014-04-13T08:25:44Z</time>
      </trkpt>
      <trkpt lat="44.60021" lon="0.87112">
        <ele>153.95</ele>
        <time>2014-04-13T08:25:50Z</time>
      </trkpt>
      <trkpt lat="44.60032" lon="0.87093">
        <ele>155.87</ele>
        <time>2014-04-13T08:25:55Z</time>
      </trkpt>
      <trkpt lat="44.60079" lon="0.87083">
        <ele>164.52</ele>
        <time>2014-04-13T08:26:08Z</time>
      </trkpt>
      <trkpt lat="44.60116" lon="0.87073">
        <ele>170.77</ele>
        <time>2014-04-13T08:26:19Z</time>
      </trkpt>
      <trkpt lat="44.60151" lon="0.87055">
        <ele>175.58</ele>
        <time>2014-04-13T08:26:30Z</time>
      </trkpt>
      <trkpt lat="44.60198" lon="0.8702">
        <ele>179.42</ele>
        <time>2014-04-13T08:26:43Z</time>
      </trkpt>
      <trkpt lat="44.6024" lon="0.87006">
        <ele>186.15</ele>
        <time>2014-04-13T08:26:55Z</time>
      </trkpt>
      <trkpt lat="44.60289" lon="0.86982">
        <ele>190</ele>
        <time>2014-04-13T08:27:10Z</time>
      </trkpt>
      <trkpt lat="44.6031" lon="0.86967">
        <ele>189.04</ele>
        <time>2014-04-13T08:27:16Z</time>
      </trkpt>
      <trkpt lat="44.60315" lon="0.86933">
        <ele>185.19</ele>
        <time>2014-04-13T08:27:21Z</time>
      </trkpt>
      <trkpt lat="44.60313" lon="0.86829">
        <ele>174.14</ele>
        <time>2014-04-13T08:27:30Z</time>
      </trkpt>
      <trkpt lat="44.60309" lon="0.86746">
        <ele>163.56</ele>
        <time>2014-04-13T08:27:38Z</time>
      </trkpt>
      <trkpt lat="44.60314" lon="0.86714">
        <ele>161.64</ele>
        <time>2014-04-13T08:27:43Z</time>
      </trkpt>
      <trkpt lat="44.60327" lon="0.86657">
        <ele>164.04</ele>
        <time>2014-04-13T08:27:56Z</time>
      </trkpt>
      <trkpt lat="44.60327" lon="0.86597">
        <ele>163.56</ele>
        <time>2014-04-13T08:28:06Z</time>
      </trkpt>
      <trkpt lat="44.60326" lon="0.86581">
        <ele>163.08</ele>
        <time>2014-04-13T08:28:08Z</time>
      </trkpt>
      <trkpt lat="44.60315" lon="0.86551">
        <ele>161.64</ele>
        <time>2014-04-13T08:28:12Z</time>
      </trkpt>
      <trkpt lat="44.60295" lon="0.86518">
        <ele>159.24</ele>
        <time>2014-04-13T08:28:17Z</time>
      </trkpt>
      <trkpt lat="44.60258" lon="0.86507">
        <ele>158.75</ele>
        <time>2014-04-13T08:28:24Z</time>
      </trkpt>
      <trkpt lat="44.60255" lon="0.86466">
        <ele>159.72</ele>
        <time>2014-04-13T08:28:32Z</time>
      </trkpt>
      <trkpt lat="44.6027" lon="0.86429">
        <ele>161.16</ele>
        <time>2014-04-13T08:28:39Z</time>
      </trkpt>
      <trkpt lat="44.60283" lon="0.86399">
        <ele>162.6</ele>
        <time>2014-04-13T08:28:44Z</time>
      </trkpt>
      <trkpt lat="44.60295" lon="0.86374">
        <ele>165</ele>
        <time>2014-04-13T08:28:49Z</time>
      </trkpt>
      <trkpt lat="44.60322" lon="0.86351">
        <ele>168.85</ele>
        <time>2014-04-13T08:28:57Z</time>
      </trkpt>
      <trkpt lat="44.60345" lon="0.86331">
        <ele>172.21</ele>
        <time>2014-04-13T08:29:03Z</time>
      </trkpt>
      <trkpt lat="44.60395" lon="0.86307">
        <ele>177.02</ele>
        <time>2014-04-13T08:29:15Z</time>
      </trkpt>
      <trkpt lat="44.60403" lon="0.86306">
        <ele>177.5</ele>
        <time>2014-04-13T08:29:17Z</time>
      </trkpt>
      <trkpt lat="44.60431" lon="0.8633">
        <ele>177.5</ele>
        <time>2014-04-13T08:29:26Z</time>
      </trkpt>
      <trkpt lat="44.60451" lon="0.86346">
        <ele>177.5</ele>
        <time>2014-04-13T08:29:37Z</time>
      </trkpt>
      <trkpt lat="44.60453" lon="0.86347">
        <ele>177.5</ele>
        <time>2014-04-13T08:29:38Z</time>
      </trkpt>
      <trkpt lat="44.60466" lon="0.86356">
        <ele>179.42</ele>
        <time>2014-04-13T08:29:45Z</time>
      </trkpt>
      <trkpt lat="44.6048" lon="0.86362">
        <ele>180.87</ele>
        <time>2014-04-13T08:29:52Z</time>
      </trkpt>
      <trkpt lat="44.60488" lon="0.86365">
        <ele>180.87</ele>
        <time>2014-04-13T08:29:56Z</time>
      </trkpt>
      <trkpt lat="44.60512" lon="0.86371">
        <ele>184.23</ele>
        <time>2014-04-13T08:30:07Z</time>
      </trkpt>
      <trkpt lat="44.60527" lon="0.86374">
        <ele>183.27</ele>
        <time>2014-04-13T08:30:11Z</time>
      </trkpt>
      <trkpt lat="44.60562" lon="0.86378">
        <ele>185.67</ele>
        <time>2014-04-13T08:30:22Z</time>
      </trkpt>
      <trkpt lat="44.60593" lon="0.86386">
        <ele>184.71</ele>
        <time>2014-04-13T08:30:31Z</time>
      </trkpt>
      <trkpt lat="44.60619" lon="0.86389">
        <ele>184.71</ele>
        <time>2014-04-13T08:30:37Z</time>
      </trkpt>
      <trkpt lat="44.60633" lon="0.86399">
        <ele>184.71</ele>
        <time>2014-04-13T08:30:41Z</time>
      </trkpt>
      <trkpt lat="44.60642" lon="0.86384">
        <ele>183.75</ele>
        <time>2014-04-13T08:30:45Z</time>
      </trkpt>
      <trkpt lat="44.60644" lon="0.86366">
        <ele>183.27</ele>
        <time>2014-04-13T08:30:48Z</time>
      </trkpt>
      <trkpt lat="44.6066" lon="0.86293">
        <ele>183.27</ele>
        <time>2014-04-13T08:31:02Z</time>
      </trkpt>
      <trkpt lat="44.60679" lon="0.86229">
        <ele>183.75</ele>
        <time>2014-04-13T08:31:16Z</time>
      </trkpt>
      <trkpt lat="44.6069" lon="0.86185">
        <ele>181.83</ele>
        <time>2014-04-13T08:31:24Z</time>
      </trkpt>
      <trkpt lat="44.60736" lon="0.86113">
        <ele>178.46</ele>
        <time>2014-04-13T08:31:37Z</time>
      </trkpt>
      <trkpt lat="44.60757" lon="0.86066">
        <ele>177.5</ele>
        <time>2014-04-13T08:31:43Z</time>
      </trkpt>
      <trkpt lat="44.60769" lon="0.85982">
        <ele>177.98</ele>
        <time>2014-04-13T08:31:53Z</time>
      </trkpt>
      <trkpt lat="44.60771" lon="0.85948">
        <ele>178.94</ele>
        <time>2014-04-13T08:31:58Z</time>
      </trkpt>
      <trkpt lat="44.60771" lon="0.85916">
        <ele>177.98</ele>
        <time>2014-04-13T08:32:03Z</time>
      </trkpt>
      <trkpt lat="44.60786" lon="0.85907">
        <ele>177.98</ele>
        <time>2014-04-13T08:32:08Z</time>
      </trkpt>
      <trkpt lat="44.60837" lon="0.85907">
        <ele>181.35</ele>
        <time>2014-04-13T08:32:19Z</time>
      </trkpt>
      <trkpt lat="44.60869" lon="0.85911">
        <ele>182.31</ele>
        <time>2014-04-13T08:32:26Z</time>
      </trkpt>
      <trkpt lat="44.6095" lon="0.85962">
        <ele>182.79</ele>
        <time>2014-04-13T08:32:44Z</time>
      </trkpt>
      <trkpt lat="44.61005" lon="0.86033">
        <ele>185.19</ele>
        <time>2014-04-13T08:32:58Z</time>
      </trkpt>
      <trkpt lat="44.61064" lon="0.86165">
        <ele>185.19</ele>
        <time>2014-04-13T08:33:18Z</time>
      </trkpt>
      <trkpt lat="44.61102" lon="0.86263">
        <ele>182.31</ele>
        <time>2014-04-13T08:33:29Z</time>
      </trkpt>
      <trkpt lat="44.61168" lon="0.86332">
        <ele>180.38</ele>
        <time>2014-04-13T08:33:41Z</time>
      </trkpt>
      <trkpt lat="44.61173" lon="0.86337">
        <ele>179.9</ele>
        <time>2014-04-13T08:33:42Z</time>
      </trkpt>
      <trkpt lat="44.6119" lon="0.86326">
        <ele>178.46</ele>
        <time>2014-04-13T08:33:47Z</time>
      </trkpt>
      <trkpt lat="44.61203" lon="0.86261">
        <ele>177.5</ele>
        <time>2014-04-13T08:33:55Z</time>
      </trkpt>
      <trkpt lat="44.61201" lon="0.86186">
        <ele>176.06</ele>
        <time>2014-04-13T08:34:04Z</time>
      </trkpt>
      <trkpt lat="44.61211" lon="0.86137">
        <ele>175.1</ele>
        <time>2014-04-13T08:34:10Z</time>
      </trkpt>
      <trkpt lat="44.61222" lon="0.86105">
        <ele>174.62</ele>
        <time>2014-04-13T08:34:14Z</time>
      </trkpt>
      <trkpt lat="44.61229" lon="0.86087">
        <ele>173.66</ele>
        <time>2014-04-13T08:34:16Z</time>
      </trkpt>
      <trkpt lat="44.61269" lon="0.86027">
        <ele>169.81</ele>
        <time>2014-04-13T08:34:23Z</time>
      </trkpt>
      <trkpt lat="44.61294" lon="0.85972">
        <ele>167.41</ele>
        <time>2014-04-13T08:34:28Z</time>
      </trkpt>
      <trkpt lat="44.61332" lon="0.85835">
        <ele>165.48</ele>
        <time>2014-04-13T08:34:40Z</time>
      </trkpt>
      <trkpt lat="44.61372" lon="0.85765">
        <ele>167.89</ele>
        <time>2014-04-13T08:34:49Z</time>
      </trkpt>
      <trkpt lat="44.61392" lon="0.85742">
        <ele>168.85</ele>
        <time>2014-04-13T08:34:54Z</time>
      </trkpt>
      <trkpt lat="44.61412" lon="0.85776">
        <ele>165.96</ele>
        <time>2014-04-13T08:35:01Z</time>
      </trkpt>
      <trkpt lat="44.61424" lon="0.85789">
        <ele>164.52</ele>
        <time>2014-04-13T08:35:03Z</time>
      </trkpt>
      <trkpt lat="44.61451" lon="0.85816">
        <ele>160.2</ele>
        <time>2014-04-13T08:35:08Z</time>
      </trkpt>
      <trkpt lat="44.61467" lon="0.85831">
        <ele>157.79</ele>
        <time>2014-04-13T08:35:15Z</time>
      </trkpt>
      <trkpt lat="44.61474" lon="0.85837">
        <ele>157.31</ele>
        <time>2014-04-13T08:35:17Z</time>
      </trkpt>
      <trkpt lat="44.6149" lon="0.85846">
        <ele>156.35</ele>
        <time>2014-04-13T08:35:20Z</time>
      </trkpt>
      <trkpt lat="44.61526" lon="0.85875">
        <ele>153.95</ele>
        <time>2014-04-13T08:35:28Z</time>
      </trkpt>
      <trkpt lat="44.6153" lon="0.85883">
        <ele>152.99</ele>
        <time>2014-04-13T08:35:30Z</time>
      </trkpt>
      <trkpt lat="44.61549" lon="0.85917">
        <ele>151.06</ele>
        <time>2014-04-13T08:35:39Z</time>
      </trkpt>
      <trkpt lat="44.61568" lon="0.85947">
        <ele>147.22</ele>
        <time>2014-04-13T08:35:47Z</time>
      </trkpt>
      <trkpt lat="44.6158" lon="0.85932">
        <ele>147.22</ele>
        <time>2014-04-13T08:35:54Z</time>
      </trkpt>
      <trkpt lat="44.61608" lon="0.85902">
        <ele>148.18</ele>
        <time>2014-04-13T08:36:05Z</time>
      </trkpt>
      <trkpt lat="44.61615" lon="0.85894">
        <ele>152.03</ele>
        <time>2014-04-13T08:36:11Z</time>
      </trkpt>
      <trkpt lat="44.61631" lon="0.85878">
        <ele>160.68</ele>
        <time>2014-04-13T08:36:26Z</time>
      </trkpt>
      <trkpt lat="44.61637" lon="0.85876">
        <ele>163.08</ele>
        <time>2014-04-13T08:36:31Z</time>
      </trkpt>
      <trkpt lat="44.61643" lon="0.85874">
        <ele>166.45</ele>
        <time>2014-04-13T08:36:35Z</time>
      </trkpt>
      <trkpt lat="44.61656" lon="0.85871">
        <ele>170.29</ele>
        <time>2014-04-13T08:36:43Z</time>
      </trkpt>
      <trkpt lat="44.61678" lon="0.85893">
        <ele>172.69</ele>
        <time>2014-04-13T08:36:57Z</time>
      </trkpt>
      <trkpt lat="44.61702" lon="0.85939">
        <ele>173.66</ele>
        <time>2014-04-13T08:37:11Z</time>
      </trkpt>
      <trkpt lat="44.6173" lon="0.85995">
        <ele>173.66</ele>
        <time>2014-04-13T08:37:24Z</time>
      </trkpt>
      <trkpt lat="44.61745" lon="0.86058">
        <ele>171.25</ele>
        <time>2014-04-13T08:37:31Z</time>
      </trkpt>
      <trkpt lat="44.61751" lon="0.86074">
        <ele>170.29</ele>
        <time>2014-04-13T08:37:33Z</time>
      </trkpt>
      <trkpt lat="44.61755" lon="0.86094">
        <ele>169.33</ele>
        <time>2014-04-13T08:37:36Z</time>
      </trkpt>
      <trkpt lat="44.61761" lon="0.86113">
        <ele>168.85</ele>
        <time>2014-04-13T08:37:39Z</time>
      </trkpt>
      <trkpt lat="44.61779" lon="0.86163">
        <ele>171.25</ele>
        <time>2014-04-13T08:37:49Z</time>
      </trkpt>
      <trkpt lat="44.61795" lon="0.86202">
        <ele>173.66</ele>
        <time>2014-04-13T08:37:57Z</time>
      </trkpt>
      <trkpt lat="44.61819" lon="0.86246">
        <ele>176.06</ele>
        <time>2014-04-13T08:38:08Z</time>
      </trkpt>
      <trkpt lat="44.61829" lon="0.8626">
        <ele>175.58</ele>
        <time>2014-04-13T08:38:12Z</time>
      </trkpt>
      <trkpt lat="44.61869" lon="0.86284">
        <ele>172.21</ele>
        <time>2014-04-13T08:38:21Z</time>
      </trkpt>
      <trkpt lat="44.61887" lon="0.86322">
        <ele>172.21</ele>
        <time>2014-04-13T08:38:28Z</time>
      </trkpt>
      <trkpt lat="44.61888" lon="0.86387">
        <ele>175.1</ele>
        <time>2014-04-13T08:38:39Z</time>
      </trkpt>
      <trkpt lat="44.61895" lon="0.86424">
        <ele>176.54</ele>
        <time>2014-04-13T08:38:46Z</time>
      </trkpt>
      <trkpt lat="44.61893" lon="0.86443">
        <ele>175.58</ele>
        <time>2014-04-13T08:38:49Z</time>
      </trkpt>
      <trkpt lat="44.61893" lon="0.86497">
        <ele>171.73</ele>
        <time>2014-04-13T08:38:57Z</time>
      </trkpt>
      <trkpt lat="44.61891" lon="0.86552">
        <ele>176.06</ele>
        <time>2014-04-13T08:39:09Z</time>
      </trkpt>
      <trkpt lat="44.61885" lon="0.86568">
        <ele>176.06</ele>
        <time>2014-04-13T08:39:14Z</time>
      </trkpt>
      <trkpt lat="44.61863" lon="0.86614">
        <ele>177.5</ele>
        <time>2014-04-13T08:39:28Z</time>
      </trkpt>
      <trkpt lat="44.6183" lon="0.86684">
        <ele>180.87</ele>
        <time>2014-04-13T08:39:46Z</time>
      </trkpt>
      <trkpt lat="44.6181" lon="0.86747">
        <ele>181.35</ele>
        <time>2014-04-13T08:40:01Z</time>
      </trkpt>
      <trkpt lat="44.61782" lon="0.86775">
        <ele>183.75</ele>
        <time>2014-04-13T08:40:11Z</time>
      </trkpt>
      <trkpt lat="44.61782" lon="0.8679">
        <ele>183.75</ele>
        <time>2014-04-13T08:40:15Z</time>
      </trkpt>
      <trkpt lat="44.61789" lon="0.86802">
        <ele>182.79</ele>
        <time>2014-04-13T08:40:18Z</time>
      </trkpt>
      <trkpt lat="44.61795" lon="0.8686">
        <ele>178.94</ele>
        <time>2014-04-13T08:40:26Z</time>
      </trkpt>
      <trkpt lat="44.6179" lon="0.86877">
        <ele>177.98</ele>
        <time>2014-04-13T08:40:28Z</time>
      </trkpt>
      <trkpt lat="44.61767" lon="0.86976">
        <ele>172.69</ele>
        <time>2014-04-13T08:40:38Z</time>
      </trkpt>
      <trkpt lat="44.61717" lon="0.87082">
        <ele>168.85</ele>
        <time>2014-04-13T08:40:49Z</time>
      </trkpt>
      <trkpt lat="44.61656" lon="0.87214">
        <ele>165.96</ele>
        <time>2014-04-13T08:41:02Z</time>
      </trkpt>
      <trkpt lat="44.6165" lon="0.87233">
        <ele>165.96</ele>
        <time>2014-04-13T08:41:04Z</time>
      </trkpt>
      <trkpt lat="44.61618" lon="0.87336">
        <ele>167.41</ele>
        <time>2014-04-13T08:41:16Z</time>
      </trkpt>
      <trkpt lat="44.61606" lon="0.87372">
        <ele>166.45</ele>
        <time>2014-04-13T08:41:23Z</time>
      </trkpt>
      <trkpt lat="44.61626" lon="0.87388">
        <ele>163.08</ele>
        <time>2014-04-13T08:41:30Z</time>
      </trkpt>
      <trkpt lat="44.61639" lon="0.87398">
        <ele>160.68</ele>
        <time>2014-04-13T08:41:33Z</time>
      </trkpt>
      <trkpt lat="44.61672" lon="0.87416">
        <ele>157.79</ele>
        <time>2014-04-13T08:41:38Z</time>
      </trkpt>
      <trkpt lat="44.61711" lon="0.8745">
        <ele>156.83</ele>
        <time>2014-04-13T08:41:45Z</time>
      </trkpt>
      <trkpt lat="44.6173" lon="0.87458">
        <ele>157.31</ele>
        <time>2014-04-13T08:41:49Z</time>
      </trkpt>
      <trkpt lat="44.61765" lon="0.87465">
        <ele>159.72</ele>
        <time>2014-04-13T08:41:58Z</time>
      </trkpt>
      <trkpt lat="44.61792" lon="0.87462">
        <ele>165</ele>
        <time>2014-04-13T08:42:07Z</time>
      </trkpt>
      <trkpt lat="44.61799" lon="0.87463">
        <ele>165.96</ele>
        <time>2014-04-13T08:42:10Z</time>
      </trkpt>
      <trkpt lat="44.61818" lon="0.87453">
        <ele>170.29</ele>
        <time>2014-04-13T08:42:19Z</time>
      </trkpt>
      <trkpt lat="44.61835" lon="0.87439">
        <ele>175.1</ele>
        <time>2014-04-13T08:42:28Z</time>
      </trkpt>
      <trkpt lat="44.61846" lon="0.87431">
        <ele>177.5</ele>
        <time>2014-04-13T08:42:33Z</time>
      </trkpt>
      <trkpt lat="44.61878" lon="0.87406">
        <ele>179.9</ele>
        <time>2014-04-13T08:42:45Z</time>
      </trkpt>
      <trkpt lat="44.61915" lon="0.87387">
        <ele>184.71</ele>
        <time>2014-04-13T08:42:57Z</time>
      </trkpt>
      <trkpt lat="44.61948" lon="0.87392">
        <ele>189.04</ele>
        <time>2014-04-13T08:43:09Z</time>
      </trkpt>
      <trkpt lat="44.61978" lon="0.87403">
        <ele>190.96</ele>
        <time>2014-04-13T08:43:19Z</time>
      </trkpt>
      <trkpt lat="44.61995" lon="0.87411">
        <ele>190.48</ele>
        <time>2014-04-13T08:43:24Z</time>
      </trkpt>
      <trkpt lat="44.62008" lon="0.87413">
        <ele>190.96</ele>
        <time>2014-04-13T08:43:27Z</time>
      </trkpt>
      <trkpt lat="44.62022" lon="0.87415">
        <ele>190.96</ele>
        <time>2014-04-13T08:43:30Z</time>
      </trkpt>
      <trkpt lat="44.62059" lon="0.87425">
        <ele>188.56</ele>
        <time>2014-04-13T08:43:37Z</time>
      </trkpt>
      <trkpt lat="44.62073" lon="0.87431">
        <ele>188.08</ele>
        <time>2014-04-13T08:43:40Z</time>
      </trkpt>
      <trkpt lat="44.62122" lon="0.87426">
        <ele>189.52</ele>
        <time>2014-04-13T08:43:53Z</time>
      </trkpt>
      <trkpt lat="44.62137" lon="0.8743">
        <ele>188.56</ele>
        <time>2014-04-13T08:43:57Z</time>
      </trkpt>
      <trkpt lat="44.62147" lon="0.87429">
        <ele>188.08</ele>
        <time>2014-04-13T08:43:59Z</time>
      </trkpt>
      <trkpt lat="44.62174" lon="0.87429">
        <ele>185.19</ele>
        <time>2014-04-13T08:44:04Z</time>
      </trkpt>
      <trkpt lat="44.62221" lon="0.87438">
        <ele>182.31</ele>
        <time>2014-04-13T08:44:14Z</time>
      </trkpt>
      <trkpt lat="44.62254" lon="0.87447">
        <ele>180.38</ele>
        <time>2014-04-13T08:44:21Z</time>
      </trkpt>
      <trkpt lat="44.62283" lon="0.87463">
        <ele>178.46</ele>
        <time>2014-04-13T08:44:27Z</time>
      </trkpt>
      <trkpt lat="44.62301" lon="0.87471">
        <ele>177.5</ele>
        <time>2014-04-13T08:44:31Z</time>
      </trkpt>
      <trkpt lat="44.6233" lon="0.87446">
        <ele>179.42</ele>
        <time>2014-04-13T08:44:39Z</time>
      </trkpt>
      <trkpt lat="44.62343" lon="0.87416">
        <ele>181.83</ele>
        <time>2014-04-13T08:44:45Z</time>
      </trkpt>
      <trkpt lat="44.62354" lon="0.874">
        <ele>183.27</ele>
        <time>2014-04-13T08:44:49Z</time>
      </trkpt>
      <trkpt lat="44.62391" lon="0.87327">
        <ele>180.38</ele>
        <time>2014-04-13T08:45:02Z</time>
      </trkpt>
      <trkpt lat="44.62403" lon="0.87309">
        <ele>181.83</ele>
        <time>2014-04-13T08:45:06Z</time>
      </trkpt>
      <trkpt lat="44.62414" lon="0.87293">
        <ele>182.79</ele>
        <time>2014-04-13T08:45:10Z</time>
      </trkpt>
      <trkpt lat="44.62438" lon="0.87233">
        <ele>184.71</ele>
        <time>2014-04-13T08:45:21Z</time>
      </trkpt>
      <trkpt lat="44.62443" lon="0.87223">
        <ele>185.19</ele>
        <time>2014-04-13T08:45:23Z</time>
      </trkpt>
      <trkpt lat="44.62459" lon="0.87185">
        <ele>185.19</ele>
        <time>2014-04-13T08:45:30Z</time>
      </trkpt>
      <trkpt lat="44.62465" lon="0.87175">
        <ele>185.19</ele>
        <time>2014-04-13T08:45:32Z</time>
      </trkpt>
      <trkpt lat="44.62482" lon="0.87175">
        <ele>183.75</ele>
        <time>2014-04-13T08:45:36Z</time>
      </trkpt>
      <trkpt lat="44.62513" lon="0.87187">
        <ele>181.83</ele>
        <time>2014-04-13T08:45:43Z</time>
      </trkpt>
      <trkpt lat="44.62554" lon="0.87225">
        <ele>181.35</ele>
        <time>2014-04-13T08:46:00Z</time>
      </trkpt>
      <trkpt lat="44.62594" lon="0.87269">
        <ele>181.83</ele>
        <time>2014-04-13T08:46:15Z</time>
      </trkpt>
      <trkpt lat="44.62611" lon="0.87288">
        <ele>181.83</ele>
        <time>2014-04-13T08:46:22Z</time>
      </trkpt>
      <trkpt lat="44.62618" lon="0.87281">
        <ele>181.35</ele>
        <time>2014-04-13T08:46:26Z</time>
      </trkpt>
      <trkpt lat="44.62626" lon="0.87263">
        <ele>179.9</ele>
        <time>2014-04-13T08:46:30Z</time>
      </trkpt>
      <trkpt lat="44.62648" lon="0.87256">
        <ele>178.94</ele>
        <time>2014-04-13T08:46:35Z</time>
      </trkpt>
      <trkpt lat="44.62661" lon="0.87261">
        <ele>178.46</ele>
        <time>2014-04-13T08:46:38Z</time>
      </trkpt>
      <trkpt lat="44.62705" lon="0.8727">
        <ele>179.42</ele>
        <time>2014-04-13T08:46:50Z</time>
      </trkpt>
      <trkpt lat="44.62733" lon="0.87286">
        <ele>182.31</ele>
        <time>2014-04-13T08:47:02Z</time>
      </trkpt>
      <trkpt lat="44.62737" lon="0.87285">
        <ele>185.19</ele>
        <time>2014-04-13T08:47:20Z</time>
      </trkpt>
      <trkpt lat="44.62739" lon="0.87287">
        <ele>185.67</ele>
        <time>2014-04-13T08:47:25Z</time>
      </trkpt>
      <trkpt lat="44.62741" lon="0.87288">
        <ele>186.15</ele>
        <time>2014-04-13T08:47:27Z</time>
      </trkpt>
      <trkpt lat="44.62754" lon="0.87302">
        <ele>188.08</ele>
        <time>2014-04-13T08:47:37Z</time>
      </trkpt>
      <trkpt lat="44.62758" lon="0.87302">
        <ele>189.04</ele>
        <time>2014-04-13T08:47:41Z</time>
      </trkpt>
      <trkpt lat="44.62761" lon="0.87299">
        <ele>187.59</ele>
        <time>2014-04-13T08:47:50Z</time>
      </trkpt>
      <trkpt lat="44.6278" lon="0.87302">
        <ele>186.15</ele>
        <time>2014-04-13T08:47:57Z</time>
      </trkpt>
      <trkpt lat="44.62796" lon="0.8731">
        <ele>184.23</ele>
        <time>2014-04-13T08:48:01Z</time>
      </trkpt>
      <trkpt lat="44.62828" lon="0.87335">
        <ele>182.79</ele>
        <time>2014-04-13T08:48:11Z</time>
      </trkpt>
      <trkpt lat="44.62848" lon="0.87344">
        <ele>180.87</ele>
        <time>2014-04-13T08:48:20Z</time>
      </trkpt>
      <trkpt lat="44.62863" lon="0.87346">
        <ele>180.87</ele>
        <time>2014-04-13T08:48:26Z</time>
      </trkpt>
      <trkpt lat="44.62891" lon="0.87324">
        <ele>179.9</ele>
        <time>2014-04-13T08:48:34Z</time>
      </trkpt>
      <trkpt lat="44.62905" lon="0.87315">
        <ele>180.38</ele>
        <time>2014-04-13T08:48:38Z</time>
      </trkpt>
      <trkpt lat="44.62949" lon="0.8731">
        <ele>182.79</ele>
        <time>2014-04-13T08:48:52Z</time>
      </trkpt>
      <trkpt lat="44.62974" lon="0.87301">
        <ele>186.15</ele>
        <time>2014-04-13T08:49:03Z</time>
      </trkpt>
      <trkpt lat="44.63002" lon="0.87318">
        <ele>188.08</ele>
        <time>2014-04-13T08:49:16Z</time>
      </trkpt>
      <trkpt lat="44.63044" lon="0.87337">
        <ele>190</ele>
        <time>2014-04-13T08:49:36Z</time>
      </trkpt>
      <trkpt lat="44.6307" lon="0.8732">
        <ele>194.8</ele>
        <time>2014-04-13T08:49:51Z</time>
      </trkpt>
      <trkpt lat="44.63087" lon="0.87282">
        <ele>197.69</ele>
        <time>2014-04-13T08:50:05Z</time>
      </trkpt>
      <trkpt lat="44.63097" lon="0.87243">
        <ele>202.98</ele>
        <time>2014-04-13T08:50:18Z</time>
      </trkpt>
      <trkpt lat="44.63114" lon="0.87204">
        <ele>209.22</ele>
        <time>2014-04-13T08:50:33Z</time>
      </trkpt>
      <trkpt lat="44.63132" lon="0.87184">
        <ele>211.63</ele>
        <time>2014-04-13T08:50:47Z</time>
      </trkpt>
      <trkpt lat="44.6314" lon="0.87186">
        <ele>212.11</ele>
        <time>2014-04-13T08:50:58Z</time>
      </trkpt>
      <trkpt lat="44.63138" lon="0.87186">
        <ele>211.15</ele>
        <time>2014-04-13T08:51:20Z</time>
      </trkpt>
      <trkpt lat="44.63139" lon="0.87185">
        <ele>208.74</ele>
        <time>2014-04-13T08:51:46Z</time>
      </trkpt>
      <trkpt lat="44.6314" lon="0.87186">
        <ele>209.7</ele>
        <time>2014-04-13T08:52:23Z</time>
      </trkpt>
      <trkpt lat="44.6314" lon="0.87187">
        <ele>212.59</ele>
        <time>2014-04-13T08:52:49Z</time>
      </trkpt>
      <trkpt lat="44.6314" lon="0.87188">
        <ele>213.07</ele>
        <time>2014-04-13T08:53:13Z</time>
      </trkpt>
      <trkpt lat="44.63138" lon="0.87187">
        <ele>213.07</ele>
        <time>2014-04-13T08:53:49Z</time>
      </trkpt>
      <trkpt lat="44.63138" lon="0.87187">
        <ele>208.74</ele>
        <time>2014-04-13T08:54:27Z</time>
      </trkpt>
      <trkpt lat="44.63139" lon="0.87187">
        <ele>209.22</ele>
        <time>2014-04-13T08:55:07Z</time>
      </trkpt>
      <trkpt lat="44.63139" lon="0.87186">
        <ele>209.7</ele>
        <time>2014-04-13T08:55:39Z</time>
      </trkpt>
      <trkpt lat="44.63155" lon="0.87175">
        <ele>211.15</ele>
        <time>2014-04-13T08:55:51Z</time>
      </trkpt>
      <trkpt lat="44.63161" lon="0.8717">
        <ele>211.63</ele>
        <time>2014-04-13T08:55:53Z</time>
      </trkpt>
      <trkpt lat="44.63178" lon="0.87162">
        <ele>212.11</ele>
        <time>2014-04-13T08:55:59Z</time>
      </trkpt>
      <trkpt lat="44.63213" lon="0.87158">
        <ele>210.67</ele>
        <time>2014-04-13T08:56:09Z</time>
      </trkpt>
      <trkpt lat="44.63257" lon="0.87155">
        <ele>207.3</ele>
        <time>2014-04-13T08:56:19Z</time>
      </trkpt>
      <trkpt lat="44.63284" lon="0.87207">
        <ele>210.19</ele>
        <time>2014-04-13T08:56:32Z</time>
      </trkpt>
      <trkpt lat="44.63305" lon="0.87306">
        <ele>211.63</ele>
        <time>2014-04-13T08:56:48Z</time>
      </trkpt>
      <trkpt lat="44.63307" lon="0.87314">
        <ele>211.63</ele>
        <time>2014-04-13T08:56:49Z</time>
      </trkpt>
      <trkpt lat="44.63322" lon="0.87342">
        <ele>210.19</ele>
        <time>2014-04-13T08:56:53Z</time>
      </trkpt>
      <trkpt lat="44.63377" lon="0.87445">
        <ele>203.94</ele>
        <time>2014-04-13T08:57:04Z</time>
      </trkpt>
      <trkpt lat="44.63449" lon="0.87614">
        <ele>197.69</ele>
        <time>2014-04-13T08:57:17Z</time>
      </trkpt>
      <trkpt lat="44.63481" lon="0.87745">
        <ele>196.25</ele>
        <time>2014-04-13T08:57:27Z</time>
      </trkpt>
      <trkpt lat="44.63497" lon="0.87809">
        <ele>196.25</ele>
        <time>2014-04-13T08:57:33Z</time>
      </trkpt>
      <trkpt lat="44.63515" lon="0.87843">
        <ele>196.25</ele>
        <time>2014-04-13T08:57:38Z</time>
      </trkpt>
      <trkpt lat="44.63589" lon="0.87924">
        <ele>197.69</ele>
        <time>2014-04-13T08:57:53Z</time>
      </trkpt>
      <trkpt lat="44.63596" lon="0.87932">
        <ele>198.17</ele>
        <time>2014-04-13T08:57:55Z</time>
      </trkpt>
      <trkpt lat="44.63644" lon="0.87966">
        <ele>202.01</ele>
        <time>2014-04-13T08:58:07Z</time>
      </trkpt>
      <trkpt lat="44.63687" lon="0.87993">
        <ele>201.05</ele>
        <time>2014-04-13T08:58:18Z</time>
      </trkpt>
      <trkpt lat="44.63761" lon="0.88037">
        <ele>199.61</ele>
        <time>2014-04-13T08:58:32Z</time>
      </trkpt>
      <trkpt lat="44.63786" lon="0.88051">
        <ele>199.13</ele>
        <time>2014-04-13T08:58:36Z</time>
      </trkpt>
      <trkpt lat="44.63885" lon="0.88088">
        <ele>193.36</ele>
        <time>2014-04-13T08:58:48Z</time>
      </trkpt>
      <trkpt lat="44.63987" lon="0.88123">
        <ele>186.15</ele>
        <time>2014-04-13T08:59:00Z</time>
      </trkpt>
      <trkpt lat="44.6408" lon="0.88169">
        <ele>184.23</ele>
        <time>2014-04-13T08:59:11Z</time>
      </trkpt>
      <trkpt lat="44.64189" lon="0.88233">
        <ele>187.59</ele>
        <time>2014-04-13T08:59:25Z</time>
      </trkpt>
      <trkpt lat="44.64251" lon="0.88261">
        <ele>193.36</ele>
        <time>2014-04-13T08:59:35Z</time>
      </trkpt>
      <trkpt lat="44.643" lon="0.88292">
        <ele>196.25</ele>
        <time>2014-04-13T08:59:48Z</time>
      </trkpt>
      <trkpt lat="44.64335" lon="0.88319">
        <ele>197.21</ele>
        <time>2014-04-13T08:59:59Z</time>
      </trkpt>
      <trkpt lat="44.64372" lon="0.88347">
        <ele>196.25</ele>
        <time>2014-04-13T09:00:13Z</time>
      </trkpt>
      <trkpt lat="44.64409" lon="0.88371">
        <ele>195.77</ele>
        <time>2014-04-13T09:00:24Z</time>
      </trkpt>
      <trkpt lat="44.64467" lon="0.88415">
        <ele>196.73</ele>
        <time>2014-04-13T09:00:38Z</time>
      </trkpt>
      <trkpt lat="44.6447" lon="0.88419">
        <ele>197.21</ele>
        <time>2014-04-13T09:00:39Z</time>
      </trkpt>
      <trkpt lat="44.64494" lon="0.88446">
        <ele>197.69</ele>
        <time>2014-04-13T09:00:45Z</time>
      </trkpt>
      <trkpt lat="44.64547" lon="0.88502">
        <ele>194.8</ele>
        <time>2014-04-13T09:00:55Z</time>
      </trkpt>
      <trkpt lat="44.64565" lon="0.88512">
        <ele>194.8</ele>
        <time>2014-04-13T09:00:58Z</time>
      </trkpt>
      <trkpt lat="44.6466" lon="0.88532">
        <ele>189.52</ele>
        <time>2014-04-13T09:01:11Z</time>
      </trkpt>
      <trkpt lat="44.64781" lon="0.88555">
        <ele>178.46</ele>
        <time>2014-04-13T09:01:25Z</time>
      </trkpt>
      <trkpt lat="44.64792" lon="0.88558">
        <ele>177.02</ele>
        <time>2014-04-13T09:01:27Z</time>
      </trkpt>
      <trkpt lat="44.64799" lon="0.88582">
        <ele>174.62</ele>
        <time>2014-04-13T09:01:33Z</time>
      </trkpt>
      <trkpt lat="44.64796" lon="0.88594">
        <ele>174.14</ele>
        <time>2014-04-13T09:01:35Z</time>
      </trkpt>
      <trkpt lat="44.64795" lon="0.88635">
        <ele>174.62</ele>
        <time>2014-04-13T09:01:42Z</time>
      </trkpt>
      <trkpt lat="44.64788" lon="0.8867">
        <ele>183.27</ele>
        <time>2014-04-13T09:01:55Z</time>
      </trkpt>
      <trkpt lat="44.64787" lon="0.88674">
        <ele>184.23</ele>
        <time>2014-04-13T09:01:57Z</time>
      </trkpt>
      <trkpt lat="44.64773" lon="0.88704">
        <ele>192.4</ele>
        <time>2014-04-13T09:02:12Z</time>
      </trkpt>
      <trkpt lat="44.64752" lon="0.88727">
        <ele>198.65</ele>
        <time>2014-04-13T09:02:26Z</time>
      </trkpt>
      <trkpt lat="44.64726" lon="0.88734">
        <ele>202.01</ele>
        <time>2014-04-13T09:02:40Z</time>
      </trkpt>
      <trkpt lat="44.64688" lon="0.88734">
        <ele>202.49</ele>
        <time>2014-04-13T09:02:57Z</time>
      </trkpt>
      <trkpt lat="44.64674" lon="0.88763">
        <ele>202.98</ele>
        <time>2014-04-13T09:03:07Z</time>
      </trkpt>
      <trkpt lat="44.64656" lon="0.88806">
        <ele>206.34</ele>
        <time>2014-04-13T09:03:19Z</time>
      </trkpt>
      <trkpt lat="44.64642" lon="0.88843">
        <ele>208.26</ele>
        <time>2014-04-13T09:03:30Z</time>
      </trkpt>
      <trkpt lat="44.6464" lon="0.88846">
        <ele>208.74</ele>
        <time>2014-04-13T09:03:31Z</time>
      </trkpt>
      <trkpt lat="44.64633" lon="0.889">
        <ele>209.7</ele>
        <time>2014-04-13T09:03:45Z</time>
      </trkpt>
      <trkpt lat="44.64631" lon="0.88925">
        <ele>208.74</ele>
        <time>2014-04-13T09:03:51Z</time>
      </trkpt>
      <trkpt lat="44.64604" lon="0.88914">
        <ele>208.26</ele>
        <time>2014-04-13T09:04:02Z</time>
      </trkpt>
      <trkpt lat="44.64561" lon="0.88887">
        <ele>205.38</ele>
        <time>2014-04-13T09:04:15Z</time>
      </trkpt>
      <trkpt lat="44.64542" lon="0.88889">
        <ele>204.42</ele>
        <time>2014-04-13T09:04:19Z</time>
      </trkpt>
      <trkpt lat="44.64485" lon="0.88988">
        <ele>208.74</ele>
        <time>2014-04-13T09:04:37Z</time>
      </trkpt>
      <trkpt lat="44.64433" lon="0.89056">
        <ele>212.11</ele>
        <time>2014-04-13T09:04:51Z</time>
      </trkpt>
      <trkpt lat="44.64365" lon="0.89122">
        <ele>211.63</ele>
        <time>2014-04-13T09:05:05Z</time>
      </trkpt>
      <trkpt lat="44.64306" lon="0.8918">
        <ele>212.59</ele>
        <time>2014-04-13T09:05:20Z</time>
      </trkpt>
      <trkpt lat="44.64247" lon="0.89239">
        <ele>215.47</ele>
        <time>2014-04-13T09:05:34Z</time>
      </trkpt>
      <trkpt lat="44.64191" lon="0.89293">
        <ele>218.36</ele>
        <time>2014-04-13T09:05:50Z</time>
      </trkpt>
      <trkpt lat="44.64141" lon="0.89344">
        <ele>224.12</ele>
        <time>2014-04-13T09:06:06Z</time>
      </trkpt>
      <trkpt lat="44.64097" lon="0.89387">
        <ele>229.89</ele>
        <time>2014-04-13T09:06:23Z</time>
      </trkpt>
      <trkpt lat="44.64062" lon="0.8942">
        <ele>231.81</ele>
        <time>2014-04-13T09:06:37Z</time>
      </trkpt>
      <trkpt lat="44.64052" lon="0.89427">
        <ele>231.33</ele>
        <time>2014-04-13T09:06:41Z</time>
      </trkpt>
      <trkpt lat="44.64045" lon="0.89413">
        <ele>230.37</ele>
        <time>2014-04-13T09:06:46Z</time>
      </trkpt>
      <trkpt lat="44.64045" lon="0.89394">
        <ele>229.41</ele>
        <time>2014-04-13T09:06:50Z</time>
      </trkpt>
      <trkpt lat="44.64035" lon="0.89387">
        <ele>227.49</ele>
        <time>2014-04-13T09:06:54Z</time>
      </trkpt>
      <trkpt lat="44.64022" lon="0.8939">
        <ele>226.53</ele>
        <time>2014-04-13T09:06:57Z</time>
      </trkpt>
      <trkpt lat="44.64003" lon="0.89367">
        <ele>221.72</ele>
        <time>2014-04-13T09:07:05Z</time>
      </trkpt>
      <trkpt lat="44.63989" lon="0.89358">
        <ele>219.8</ele>
        <time>2014-04-13T09:07:09Z</time>
      </trkpt>
      <trkpt lat="44.63957" lon="0.89338">
        <ele>212.59</ele>
        <time>2014-04-13T09:07:17Z</time>
      </trkpt>
      <trkpt lat="44.63936" lon="0.89338">
        <ele>210.19</ele>
        <time>2014-04-13T09:07:21Z</time>
      </trkpt>
      <trkpt lat="44.63924" lon="0.8933">
        <ele>209.22</ele>
        <time>2014-04-13T09:07:24Z</time>
      </trkpt>
      <trkpt lat="44.63906" lon="0.89332">
        <ele>207.78</ele>
        <time>2014-04-13T09:07:28Z</time>
      </trkpt>
      <trkpt lat="44.63884" lon="0.89373">
        <ele>206.82</ele>
        <time>2014-04-13T09:07:37Z</time>
      </trkpt>
      <trkpt lat="44.6387" lon="0.89369">
        <ele>205.38</ele>
        <time>2014-04-13T09:07:43Z</time>
      </trkpt>
      <trkpt lat="44.63863" lon="0.8937">
        <ele>204.9</ele>
        <time>2014-04-13T09:07:45Z</time>
      </trkpt>
      <trkpt lat="44.63855" lon="0.89361">
        <ele>203.94</ele>
        <time>2014-04-13T09:07:48Z</time>
      </trkpt>
      <trkpt lat="44.63848" lon="0.89347">
        <ele>202.01</ele>
        <time>2014-04-13T09:07:56Z</time>
      </trkpt>
      <trkpt lat="44.63841" lon="0.89341">
        <ele>202.49</ele>
        <time>2014-04-13T09:08:00Z</time>
      </trkpt>
      <trkpt lat="44.63829" lon="0.8932">
        <ele>199.61</ele>
        <time>2014-04-13T09:08:06Z</time>
      </trkpt>
      <trkpt lat="44.63823" lon="0.89315">
        <ele>198.65</ele>
        <time>2014-04-13T09:08:08Z</time>
      </trkpt>
      <trkpt lat="44.63811" lon="0.89297">
        <ele>196.73</ele>
        <time>2014-04-13T09:08:12Z</time>
      </trkpt>
      <trkpt lat="44.63784" lon="0.89268">
        <ele>197.69</ele>
        <time>2014-04-13T09:08:22Z</time>
      </trkpt>
      <trkpt lat="44.63769" lon="0.89241">
        <ele>199.13</ele>
        <time>2014-04-13T09:08:35Z</time>
      </trkpt>
      <trkpt lat="44.63764" lon="0.8922">
        <ele>204.42</ele>
        <time>2014-04-13T09:08:47Z</time>
      </trkpt>
      <trkpt lat="44.63762" lon="0.89216">
        <ele>204.42</ele>
        <time>2014-04-13T09:08:50Z</time>
      </trkpt>
      <trkpt lat="44.6376" lon="0.89214">
        <ele>205.38</ele>
        <time>2014-04-13T09:08:52Z</time>
      </trkpt>
      <trkpt lat="44.63746" lon="0.8919">
        <ele>204.9</ele>
        <time>2014-04-13T09:09:00Z</time>
      </trkpt>
      <trkpt lat="44.63739" lon="0.89176">
        <ele>204.9</ele>
        <time>2014-04-13T09:09:04Z</time>
      </trkpt>
      <trkpt lat="44.63735" lon="0.89164">
        <ele>203.94</ele>
        <time>2014-04-13T09:09:06Z</time>
      </trkpt>
      <trkpt lat="44.63729" lon="0.89142">
        <ele>203.46</ele>
        <time>2014-04-13T09:09:09Z</time>
      </trkpt>
      <trkpt lat="44.63726" lon="0.89129">
        <ele>202.98</ele>
        <time>2014-04-13T09:09:11Z</time>
      </trkpt>
      <trkpt lat="44.63714" lon="0.89122">
        <ele>203.46</ele>
        <time>2014-04-13T09:09:16Z</time>
      </trkpt>
      <trkpt lat="44.63686" lon="0.89139">
        <ele>200.09</ele>
        <time>2014-04-13T09:09:25Z</time>
      </trkpt>
      <trkpt lat="44.63683" lon="0.89142">
        <ele>200.09</ele>
        <time>2014-04-13T09:09:26Z</time>
      </trkpt>
      <trkpt lat="44.63671" lon="0.89148">
        <ele>199.13</ele>
        <time>2014-04-13T09:09:29Z</time>
      </trkpt>
      <trkpt lat="44.63653" lon="0.8912">
        <ele>196.25</ele>
        <time>2014-04-13T09:09:38Z</time>
      </trkpt>
      <trkpt lat="44.63639" lon="0.89089">
        <ele>195.28</ele>
        <time>2014-04-13T09:09:47Z</time>
      </trkpt>
      <trkpt lat="44.6363" lon="0.89069">
        <ele>194.32</ele>
        <time>2014-04-13T09:09:52Z</time>
      </trkpt>
      <trkpt lat="44.63615" lon="0.89074">
        <ele>195.28</ele>
        <time>2014-04-13T09:09:58Z</time>
      </trkpt>
      <trkpt lat="44.63606" lon="0.89085">
        <ele>195.28</ele>
        <time>2014-04-13T09:10:01Z</time>
      </trkpt>
      <trkpt lat="44.63592" lon="0.89099">
        <ele>194.32</ele>
        <time>2014-04-13T09:10:05Z</time>
      </trkpt>
      <trkpt lat="44.63574" lon="0.89115">
        <ele>193.84</ele>
        <time>2014-04-13T09:10:10Z</time>
      </trkpt>
      <trkpt lat="44.63515" lon="0.89181">
        <ele>192.4</ele>
        <time>2014-04-13T09:10:24Z</time>
      </trkpt>
      <trkpt lat="44.63452" lon="0.89248">
        <ele>189.52</ele>
        <time>2014-04-13T09:10:34Z</time>
      </trkpt>
      <trkpt lat="44.63415" lon="0.89297">
        <ele>186.63</ele>
        <time>2014-04-13T09:10:40Z</time>
      </trkpt>
      <trkpt lat="44.63384" lon="0.89337">
        <ele>185.19</ele>
        <time>2014-04-13T09:10:46Z</time>
      </trkpt>
      <trkpt lat="44.63342" lon="0.89374">
        <ele>182.31</ele>
        <time>2014-04-13T09:10:54Z</time>
      </trkpt>
      <trkpt lat="44.63315" lon="0.89402">
        <ele>179.42</ele>
        <time>2014-04-13T09:10:58Z</time>
      </trkpt>
      <trkpt lat="44.6327" lon="0.89452">
        <ele>177.02</ele>
        <time>2014-04-13T09:11:09Z</time>
      </trkpt>
      <trkpt lat="44.63266" lon="0.89456">
        <ele>177.02</ele>
        <time>2014-04-13T09:11:11Z</time>
      </trkpt>
      <trkpt lat="44.63267" lon="0.89472">
        <ele>176.54</ele>
        <time>2014-04-13T09:11:16Z</time>
      </trkpt>
      <trkpt lat="44.63298" lon="0.89533">
        <ele>177.02</ele>
        <time>2014-04-13T09:11:33Z</time>
      </trkpt>
      <trkpt lat="44.63317" lon="0.89567">
        <ele>178.46</ele>
        <time>2014-04-13T09:11:45Z</time>
      </trkpt>
      <trkpt lat="44.63318" lon="0.89571">
        <ele>179.42</ele>
        <time>2014-04-13T09:11:46Z</time>
      </trkpt>
      <trkpt lat="44.63335" lon="0.89596">
        <ele>178.46</ele>
        <time>2014-04-13T09:11:55Z</time>
      </trkpt>
      <trkpt lat="44.63349" lon="0.89621">
        <ele>176.06</ele>
        <time>2014-04-13T09:12:00Z</time>
      </trkpt>
      <trkpt lat="44.63349" lon="0.89643">
        <ele>175.58</ele>
        <time>2014-04-13T09:12:05Z</time>
      </trkpt>
      <trkpt lat="44.63348" lon="0.89648">
        <ele>175.58</ele>
        <time>2014-04-13T09:12:07Z</time>
      </trkpt>
      <trkpt lat="44.63348" lon="0.89671">
        <ele>175.1</ele>
        <time>2014-04-13T09:12:13Z</time>
      </trkpt>
      <trkpt lat="44.63361" lon="0.89725">
        <ele>175.1</ele>
        <time>2014-04-13T09:12:27Z</time>
      </trkpt>
      <trkpt lat="44.63373" lon="0.89785">
        <ele>175.58</ele>
        <time>2014-04-13T09:12:41Z</time>
      </trkpt>
      <trkpt lat="44.63402" lon="0.8984">
        <ele>173.66</ele>
        <time>2014-04-13T09:12:55Z</time>
      </trkpt>
      <trkpt lat="44.6343" lon="0.8989">
        <ele>174.14</ele>
        <time>2014-04-13T09:13:07Z</time>
      </trkpt>
      <trkpt lat="44.63433" lon="0.89897">
        <ele>174.62</ele>
        <time>2014-04-13T09:13:09Z</time>
      </trkpt>
      <trkpt lat="44.63431" lon="0.8991">
        <ele>174.62</ele>
        <time>2014-04-13T09:13:13Z</time>
      </trkpt>
      <trkpt lat="44.63418" lon="0.89942">
        <ele>174.14</ele>
        <time>2014-04-13T09:13:21Z</time>
      </trkpt>
      <trkpt lat="44.63404" lon="0.90002">
        <ele>177.5</ele>
        <time>2014-04-13T09:13:34Z</time>
      </trkpt>
      <trkpt lat="44.63406" lon="0.90056">
        <ele>181.35</ele>
        <time>2014-04-13T09:13:48Z</time>
      </trkpt>
      <trkpt lat="44.63407" lon="0.90061">
        <ele>181.35</ele>
        <time>2014-04-13T09:13:49Z</time>
      </trkpt>
      <trkpt lat="44.63403" lon="0.90091">
        <ele>180.87</ele>
        <time>2014-04-13T09:13:54Z</time>
      </trkpt>
      <trkpt lat="44.63403" lon="0.90112">
        <ele>180.38</ele>
        <time>2014-04-13T09:13:57Z</time>
      </trkpt>
      <trkpt lat="44.63391" lon="0.90143">
        <ele>179.9</ele>
        <time>2014-04-13T09:14:03Z</time>
      </trkpt>
      <trkpt lat="44.63399" lon="0.90184">
        <ele>180.87</ele>
        <time>2014-04-13T09:14:13Z</time>
      </trkpt>
      <trkpt lat="44.63402" lon="0.90227">
        <ele>182.31</ele>
        <time>2014-04-13T09:14:25Z</time>
      </trkpt>
      <trkpt lat="44.63408" lon="0.90261">
        <ele>184.23</ele>
        <time>2014-04-13T09:14:38Z</time>
      </trkpt>
      <trkpt lat="44.63395" lon="0.90283">
        <ele>187.59</ele>
        <time>2014-04-13T09:14:50Z</time>
      </trkpt>
      <trkpt lat="44.63368" lon="0.903">
        <ele>187.59</ele>
        <time>2014-04-13T09:15:04Z</time>
      </trkpt>
      <trkpt lat="44.63344" lon="0.90306">
        <ele>187.11</ele>
        <time>2014-04-13T09:15:11Z</time>
      </trkpt>
      <trkpt lat="44.63278" lon="0.90301">
        <ele>186.15</ele>
        <time>2014-04-13T09:15:29Z</time>
      </trkpt>
      <trkpt lat="44.63198" lon="0.90291">
        <ele>186.63</ele>
        <time>2014-04-13T09:15:50Z</time>
      </trkpt>
      <trkpt lat="44.6315" lon="0.90294">
        <ele>192.88</ele>
        <time>2014-04-13T09:16:04Z</time>
      </trkpt>
      <trkpt lat="44.6309" lon="0.90299">
        <ele>198.65</ele>
        <time>2014-04-13T09:16:21Z</time>
      </trkpt>
      <trkpt lat="44.63038" lon="0.90305">
        <ele>201.05</ele>
        <time>2014-04-13T09:16:36Z</time>
      </trkpt>
      <trkpt lat="44.63026" lon="0.9032">
        <ele>199.61</ele>
        <time>2014-04-13T09:16:42Z</time>
      </trkpt>
      <trkpt lat="44.63019" lon="0.90328">
        <ele>199.13</ele>
        <time>2014-04-13T09:16:44Z</time>
      </trkpt>
      <trkpt lat="44.63007" lon="0.90348">
        <ele>197.69</ele>
        <time>2014-04-13T09:16:48Z</time>
      </trkpt>
      <trkpt lat="44.62988" lon="0.90405">
        <ele>193.36</ele>
        <time>2014-04-13T09:16:56Z</time>
      </trkpt>
      <trkpt lat="44.62982" lon="0.90433">
        <ele>192.88</ele>
        <time>2014-04-13T09:17:00Z</time>
      </trkpt>
      <trkpt lat="44.62965" lon="0.90488">
        <ele>194.32</ele>
        <time>2014-04-13T09:17:10Z</time>
      </trkpt>
      <trkpt lat="44.62953" lon="0.90505">
        <ele>195.28</ele>
        <time>2014-04-13T09:17:14Z</time>
      </trkpt>
      <trkpt lat="44.62942" lon="0.90516">
        <ele>195.28</ele>
        <time>2014-04-13T09:17:17Z</time>
      </trkpt>
      <trkpt lat="44.62909" lon="0.90526">
        <ele>195.77</ele>
        <time>2014-04-13T09:17:26Z</time>
      </trkpt>
      <trkpt lat="44.62887" lon="0.90546">
        <ele>195.77</ele>
        <time>2014-04-13T09:17:35Z</time>
      </trkpt>
      <trkpt lat="44.62855" lon="0.90597">
        <ele>199.13</ele>
        <time>2014-04-13T09:17:50Z</time>
      </trkpt>
      <trkpt lat="44.62822" lon="0.90627">
        <ele>203.46</ele>
        <time>2014-04-13T09:18:02Z</time>
      </trkpt>
      <trkpt lat="44.62807" lon="0.9066">
        <ele>206.34</ele>
        <time>2014-04-13T09:18:12Z</time>
      </trkpt>
      <trkpt lat="44.62794" lon="0.90698">
        <ele>209.22</ele>
        <time>2014-04-13T09:18:22Z</time>
      </trkpt>
      <trkpt lat="44.62782" lon="0.90737">
        <ele>211.15</ele>
        <time>2014-04-13T09:18:33Z</time>
      </trkpt>
      <trkpt lat="44.62771" lon="0.90773">
        <ele>214.03</ele>
        <time>2014-04-13T09:18:46Z</time>
      </trkpt>
      <trkpt lat="44.62745" lon="0.90807">
        <ele>219.32</ele>
        <time>2014-04-13T09:19:01Z</time>
      </trkpt>
      <trkpt lat="44.62737" lon="0.90812">
        <ele>220.76</ele>
        <time>2014-04-13T09:19:05Z</time>
      </trkpt>
      <trkpt lat="44.62711" lon="0.90839">
        <ele>221.72</ele>
        <time>2014-04-13T09:19:16Z</time>
      </trkpt>
      <trkpt lat="44.6268" lon="0.90859">
        <ele>221.72</ele>
        <time>2014-04-13T09:19:26Z</time>
      </trkpt>
      <trkpt lat="44.62645" lon="0.90869">
        <ele>221.24</ele>
        <time>2014-04-13T09:19:37Z</time>
      </trkpt>
      <trkpt lat="44.62611" lon="0.9089">
        <ele>221.72</ele>
        <time>2014-04-13T09:19:49Z</time>
      </trkpt>
      <trkpt lat="44.62577" lon="0.90913">
        <ele>220.76</ele>
        <time>2014-04-13T09:20:02Z</time>
      </trkpt>
      <trkpt lat="44.62545" lon="0.90935">
        <ele>225.57</ele>
        <time>2014-04-13T09:20:13Z</time>
      </trkpt>
      <trkpt lat="44.62538" lon="0.90965">
        <ele>231.33</ele>
        <time>2014-04-13T09:20:22Z</time>
      </trkpt>
      <trkpt lat="44.62533" lon="0.9098">
        <ele>235.18</ele>
        <time>2014-04-13T09:20:27Z</time>
      </trkpt>
      <trkpt lat="44.62508" lon="0.91033">
        <ele>237.1</ele>
        <time>2014-04-13T09:20:42Z</time>
      </trkpt>
      <trkpt lat="44.62483" lon="0.91061">
        <ele>239.51</ele>
        <time>2014-04-13T09:20:53Z</time>
      </trkpt>
      <trkpt lat="44.62472" lon="0.91066">
        <ele>240.47</ele>
        <time>2014-04-13T09:20:57Z</time>
      </trkpt>
      <trkpt lat="44.62454" lon="0.9109">
        <ele>241.91</ele>
        <time>2014-04-13T09:21:07Z</time>
      </trkpt>
      <trkpt lat="44.62452" lon="0.91102">
        <ele>242.87</ele>
        <time>2014-04-13T09:21:10Z</time>
      </trkpt>
      <trkpt lat="44.62449" lon="0.91142">
        <ele>246.23</ele>
        <time>2014-04-13T09:21:20Z</time>
      </trkpt>
      <trkpt lat="44.62452" lon="0.91172">
        <ele>247.2</ele>
        <time>2014-04-13T09:21:30Z</time>
      </trkpt>
      <trkpt lat="44.62451" lon="0.91178">
        <ele>247.2</ele>
        <time>2014-04-13T09:21:32Z</time>
      </trkpt>
      <trkpt lat="44.62446" lon="0.91198">
        <ele>247.68</ele>
        <time>2014-04-13T09:21:42Z</time>
      </trkpt>
      <trkpt lat="44.62417" lon="0.9125">
        <ele>244.79</ele>
        <time>2014-04-13T09:21:54Z</time>
      </trkpt>
      <trkpt lat="44.62405" lon="0.91261">
        <ele>245.27</ele>
        <time>2014-04-13T09:21:59Z</time>
      </trkpt>
      <trkpt lat="44.62397" lon="0.91254">
        <ele>244.31</ele>
        <time>2014-04-13T09:22:05Z</time>
      </trkpt>
      <trkpt lat="44.62376" lon="0.9122">
        <ele>239.51</ele>
        <time>2014-04-13T09:22:18Z</time>
      </trkpt>
      <trkpt lat="44.62344" lon="0.91166">
        <ele>235.18</ele>
        <time>2014-04-13T09:22:33Z</time>
      </trkpt>
      <trkpt lat="44.62313" lon="0.91125">
        <ele>234.7</ele>
        <time>2014-04-13T09:22:44Z</time>
      </trkpt>
      <trkpt lat="44.62302" lon="0.9111">
        <ele>234.7</ele>
        <time>2014-04-13T09:22:47Z</time>
      </trkpt>
      <trkpt lat="44.62256" lon="0.91029">
        <ele>233.26</ele>
        <time>2014-04-13T09:23:02Z</time>
      </trkpt>
      <trkpt lat="44.62248" lon="0.91009">
        <ele>231.81</ele>
        <time>2014-04-13T09:23:05Z</time>
      </trkpt>
      <trkpt lat="44.6222" lon="0.90919">
        <ele>231.81</ele>
        <time>2014-04-13T09:23:19Z</time>
      </trkpt>
      <trkpt lat="44.62217" lon="0.90905">
        <ele>232.3</ele>
        <time>2014-04-13T09:23:21Z</time>
      </trkpt>
      <trkpt lat="44.62206" lon="0.90829">
        <ele>233.26</ele>
        <time>2014-04-13T09:23:32Z</time>
      </trkpt>
      <trkpt lat="44.62204" lon="0.90808">
        <ele>232.78</ele>
        <time>2014-04-13T09:23:35Z</time>
      </trkpt>
      <trkpt lat="44.62192" lon="0.90748">
        <ele>233.74</ele>
        <time>2014-04-13T09:23:47Z</time>
      </trkpt>
      <trkpt lat="44.62192" lon="0.90733">
        <ele>233.26</ele>
        <time>2014-04-13T09:23:50Z</time>
      </trkpt>
      <trkpt lat="44.622" lon="0.90696">
        <ele>231.33</ele>
        <time>2014-04-13T09:23:57Z</time>
      </trkpt>
      <trkpt lat="44.62203" lon="0.90679">
        <ele>229.89</ele>
        <time>2014-04-13T09:24:00Z</time>
      </trkpt>
      <trkpt lat="44.62208" lon="0.90643">
        <ele>228.93</ele>
        <time>2014-04-13T09:24:06Z</time>
      </trkpt>
      <trkpt lat="44.62215" lon="0.90606">
        <ele>227.97</ele>
        <time>2014-04-13T09:24:16Z</time>
      </trkpt>
      <trkpt lat="44.62217" lon="0.90594">
        <ele>228.45</ele>
        <time>2014-04-13T09:24:33Z</time>
      </trkpt>
      <trkpt lat="44.62217" lon="0.90577">
        <ele>231.33</ele>
        <time>2014-04-13T09:24:43Z</time>
      </trkpt>
      <trkpt lat="44.62218" lon="0.90565">
        <ele>230.85</ele>
        <time>2014-04-13T09:24:47Z</time>
      </trkpt>
      <trkpt lat="44.62225" lon="0.90526">
        <ele>230.37</ele>
        <time>2014-04-13T09:24:56Z</time>
      </trkpt>
      <trkpt lat="44.62233" lon="0.90479">
        <ele>228.93</ele>
        <time>2014-04-13T09:25:04Z</time>
      </trkpt>
      <trkpt lat="44.62238" lon="0.90455">
        <ele>227.97</ele>
        <time>2014-04-13T09:25:08Z</time>
      </trkpt>
      <trkpt lat="44.62245" lon="0.90408">
        <ele>227.97</ele>
        <time>2014-04-13T09:25:16Z</time>
      </trkpt>
      <trkpt lat="44.62262" lon="0.90337">
        <ele>227.01</ele>
        <time>2014-04-13T09:25:28Z</time>
      </trkpt>
      <trkpt lat="44.62278" lon="0.90287">
        <ele>229.41</ele>
        <time>2014-04-13T09:25:39Z</time>
      </trkpt>
      <trkpt lat="44.62296" lon="0.90249">
        <ele>228.45</ele>
        <time>2014-04-13T09:25:52Z</time>
      </trkpt>
      <trkpt lat="44.62301" lon="0.90234">
        <ele>227.01</ele>
        <time>2014-04-13T09:25:55Z</time>
      </trkpt>
      <trkpt lat="44.6232" lon="0.90178">
        <ele>225.57</ele>
        <time>2014-04-13T09:26:06Z</time>
      </trkpt>
      <trkpt lat="44.62337" lon="0.90113">
        <ele>221.72</ele>
        <time>2014-04-13T09:26:18Z</time>
      </trkpt>
      <trkpt lat="44.62376" lon="0.90053">
        <ele>221.24</ele>
        <time>2014-04-13T09:26:31Z</time>
      </trkpt>
      <trkpt lat="44.6241" lon="0.9002">
        <ele>222.68</ele>
        <time>2014-04-13T09:26:42Z</time>
      </trkpt>
      <trkpt lat="44.62442" lon="0.89983">
        <ele>225.57</ele>
        <time>2014-04-13T09:26:54Z</time>
      </trkpt>
      <trkpt lat="44.62481" lon="0.89939">
        <ele>225.57</ele>
        <time>2014-04-13T09:27:06Z</time>
      </trkpt>
      <trkpt lat="44.62483" lon="0.89935">
        <ele>225.57</ele>
        <time>2014-04-13T09:27:07Z</time>
      </trkpt>
      <trkpt lat="44.62476" lon="0.89919">
        <ele>226.53</ele>
        <time>2014-04-13T09:27:17Z</time>
      </trkpt>
      <trkpt lat="44.62458" lon="0.8991">
        <ele>226.53</ele>
        <time>2014-04-13T09:27:28Z</time>
      </trkpt>
      <trkpt lat="44.62449" lon="0.89908">
        <ele>227.01</ele>
        <time>2014-04-13T09:27:32Z</time>
      </trkpt>
      <trkpt lat="44.62377" lon="0.89898">
        <ele>223.64</ele>
        <time>2014-04-13T09:27:49Z</time>
      </trkpt>
      <trkpt lat="44.62288" lon="0.89898">
        <ele>223.16</ele>
        <time>2014-04-13T09:28:04Z</time>
      </trkpt>
      <trkpt lat="44.62224" lon="0.89896">
        <ele>222.68</ele>
        <time>2014-04-13T09:28:16Z</time>
      </trkpt>
      <trkpt lat="44.62208" lon="0.89877">
        <ele>221.72</ele>
        <time>2014-04-13T09:28:20Z</time>
      </trkpt>
      <trkpt lat="44.62159" lon="0.89785">
        <ele>220.76</ele>
        <time>2014-04-13T09:28:35Z</time>
      </trkpt>
      <trkpt lat="44.62096" lon="0.89703">
        <ele>216.43</ele>
        <time>2014-04-13T09:28:48Z</time>
      </trkpt>
      <trkpt lat="44.62097" lon="0.89653">
        <ele>214.03</ele>
        <time>2014-04-13T09:28:54Z</time>
      </trkpt>
      <trkpt lat="44.62118" lon="0.89617">
        <ele>211.15</ele>
        <time>2014-04-13T09:29:00Z</time>
      </trkpt>
      <trkpt lat="44.62103" lon="0.89602">
        <ele>209.22</ele>
        <time>2014-04-13T09:29:06Z</time>
      </trkpt>
      <trkpt lat="44.62086" lon="0.89591">
        <ele>208.26</ele>
        <time>2014-04-13T09:29:10Z</time>
      </trkpt>
      <trkpt lat="44.62077" lon="0.89587">
        <ele>208.26</ele>
        <time>2014-04-13T09:29:12Z</time>
      </trkpt>
      <trkpt lat="44.6206" lon="0.89577">
        <ele>207.78</ele>
        <time>2014-04-13T09:29:16Z</time>
      </trkpt>
      <trkpt lat="44.62036" lon="0.89542">
        <ele>209.22</ele>
        <time>2014-04-13T09:29:24Z</time>
      </trkpt>
      <trkpt lat="44.62024" lon="0.89516">
        <ele>208.74</ele>
        <time>2014-04-13T09:29:28Z</time>
      </trkpt>
      <trkpt lat="44.62006" lon="0.89471">
        <ele>208.74</ele>
        <time>2014-04-13T09:29:36Z</time>
      </trkpt>
      <trkpt lat="44.61982" lon="0.89414">
        <ele>208.26</ele>
        <time>2014-04-13T09:29:47Z</time>
      </trkpt>
      <trkpt lat="44.6198" lon="0.89408">
        <ele>208.26</ele>
        <time>2014-04-13T09:29:48Z</time>
      </trkpt>
      <trkpt lat="44.61972" lon="0.89371">
        <ele>208.26</ele>
        <time>2014-04-13T09:29:54Z</time>
      </trkpt>
      <trkpt lat="44.61959" lon="0.89313">
        <ele>211.15</ele>
        <time>2014-04-13T09:30:06Z</time>
      </trkpt>
      <trkpt lat="44.61958" lon="0.89297">
        <ele>212.59</ele>
        <time>2014-04-13T09:30:09Z</time>
      </trkpt>
      <trkpt lat="44.61959" lon="0.89248">
        <ele>213.55</ele>
        <time>2014-04-13T09:30:16Z</time>
      </trkpt>
      <trkpt lat="44.61975" lon="0.89131">
        <ele>212.59</ele>
        <time>2014-04-13T09:30:30Z</time>
      </trkpt>
      <trkpt lat="44.61979" lon="0.89106">
        <ele>212.59</ele>
        <time>2014-04-13T09:30:33Z</time>
      </trkpt>
      <trkpt lat="44.61983" lon="0.8909">
        <ele>213.07</ele>
        <time>2014-04-13T09:30:35Z</time>
      </trkpt>
      <trkpt lat="44.61986" lon="0.89064">
        <ele>214.51</ele>
        <time>2014-04-13T09:30:39Z</time>
      </trkpt>
      <trkpt lat="44.61987" lon="0.89047">
        <ele>214.99</ele>
        <time>2014-04-13T09:30:42Z</time>
      </trkpt>
      <trkpt lat="44.61975" lon="0.88997">
        <ele>215.95</ele>
        <time>2014-04-13T09:30:51Z</time>
      </trkpt>
      <trkpt lat="44.61963" lon="0.89">
        <ele>215.95</ele>
        <time>2014-04-13T09:30:55Z</time>
      </trkpt>
      <trkpt lat="44.61895" lon="0.89064">
        <ele>210.19</ele>
        <time>2014-04-13T09:31:08Z</time>
      </trkpt>
      <trkpt lat="44.61875" lon="0.89082">
        <ele>207.78</ele>
        <time>2014-04-13T09:31:13Z</time>
      </trkpt>
      <trkpt lat="44.61869" lon="0.89067">
        <ele>205.38</ele>
        <time>2014-04-13T09:31:18Z</time>
      </trkpt>
      <trkpt lat="44.61856" lon="0.8904">
        <ele>202.01</ele>
        <time>2014-04-13T09:31:23Z</time>
      </trkpt>
      <trkpt lat="44.6184" lon="0.89022">
        <ele>199.61</ele>
        <time>2014-04-13T09:31:28Z</time>
      </trkpt>
      <trkpt lat="44.61827" lon="0.89033">
        <ele>198.65</ele>
        <time>2014-04-13T09:31:32Z</time>
      </trkpt>
      <trkpt lat="44.61797" lon="0.8901">
        <ele>195.77</ele>
        <time>2014-04-13T09:31:40Z</time>
      </trkpt>
      <trkpt lat="44.61789" lon="0.89002">
        <ele>194.32</ele>
        <time>2014-04-13T09:31:42Z</time>
      </trkpt>
      <trkpt lat="44.61752" lon="0.88955">
        <ele>190</ele>
        <time>2014-04-13T09:31:51Z</time>
      </trkpt>
      <trkpt lat="44.61734" lon="0.88933">
        <ele>188.08</ele>
        <time>2014-04-13T09:31:55Z</time>
      </trkpt>
      <trkpt lat="44.61725" lon="0.88923">
        <ele>187.11</ele>
        <time>2014-04-13T09:31:57Z</time>
      </trkpt>
      <trkpt lat="44.61711" lon="0.88922">
        <ele>185.67</ele>
        <time>2014-04-13T09:32:01Z</time>
      </trkpt>
      <trkpt lat="44.61699" lon="0.8894">
        <ele>186.15</ele>
        <time>2014-04-13T09:32:05Z</time>
      </trkpt>
      <trkpt lat="44.61685" lon="0.88968">
        <ele>188.56</ele>
        <time>2014-04-13T09:32:11Z</time>
      </trkpt>
      <trkpt lat="44.61683" lon="0.89005">
        <ele>190</ele>
        <time>2014-04-13T09:32:20Z</time>
      </trkpt>
      <trkpt lat="44.61682" lon="0.8901">
        <ele>193.84</ele>
        <time>2014-04-13T09:32:34Z</time>
      </trkpt>
      <trkpt lat="44.61679" lon="0.89022">
        <ele>195.77</ele>
        <time>2014-04-13T09:32:42Z</time>
      </trkpt>
      <trkpt lat="44.61676" lon="0.89057">
        <ele>200.09</ele>
        <time>2014-04-13T09:32:54Z</time>
      </trkpt>
      <trkpt lat="44.61668" lon="0.8909">
        <ele>206.34</ele>
        <time>2014-04-13T09:33:04Z</time>
      </trkpt>
      <trkpt lat="44.61655" lon="0.89093">
        <ele>206.82</ele>
        <time>2014-04-13T09:33:08Z</time>
      </trkpt>
      <trkpt lat="44.61647" lon="0.8909">
        <ele>206.34</ele>
        <time>2014-04-13T09:33:10Z</time>
      </trkpt>
      <trkpt lat="44.61582" lon="0.89094">
        <ele>196.25</ele>
        <time>2014-04-13T09:33:21Z</time>
      </trkpt>
      <trkpt lat="44.61576" lon="0.89096">
        <ele>195.28</ele>
        <time>2014-04-13T09:33:22Z</time>
      </trkpt>
      <trkpt lat="44.61559" lon="0.89107">
        <ele>191.92</ele>
        <time>2014-04-13T09:33:25Z</time>
      </trkpt>
      <trkpt lat="44.61546" lon="0.89084">
        <ele>187.59</ele>
        <time>2014-04-13T09:33:33Z</time>
      </trkpt>
      <trkpt lat="44.61518" lon="0.89017">
        <ele>184.23</ele>
        <time>2014-04-13T09:33:47Z</time>
      </trkpt>
      <trkpt lat="44.61493" lon="0.88994">
        <ele>180.87</ele>
        <time>2014-04-13T09:34:01Z</time>
      </trkpt>
      <trkpt lat="44.61446" lon="0.88952">
        <ele>179.42</ele>
        <time>2014-04-13T09:34:16Z</time>
      </trkpt>
      <trkpt lat="44.61426" lon="0.88939">
        <ele>179.42</ele>
        <time>2014-04-13T09:34:21Z</time>
      </trkpt>
      <trkpt lat="44.61361" lon="0.88878">
        <ele>175.58</ele>
        <time>2014-04-13T09:34:36Z</time>
      </trkpt>
      <trkpt lat="44.61338" lon="0.88853">
        <ele>173.66</ele>
        <time>2014-04-13T09:34:41Z</time>
      </trkpt>
      <trkpt lat="44.61266" lon="0.88798">
        <ele>173.17</ele>
        <time>2014-04-13T09:34:55Z</time>
      </trkpt>
      <trkpt lat="44.61195" lon="0.88729">
        <ele>176.06</ele>
        <time>2014-04-13T09:35:11Z</time>
      </trkpt>
      <trkpt lat="44.61144" lon="0.88681">
        <ele>177.5</ele>
        <time>2014-04-13T09:35:23Z</time>
      </trkpt>
      <trkpt lat="44.61131" lon="0.88673">
        <ele>177.98</ele>
        <time>2014-04-13T09:35:26Z</time>
      </trkpt>
      <trkpt lat="44.61075" lon="0.88613">
        <ele>174.14</ele>
        <time>2014-04-13T09:35:39Z</time>
      </trkpt>
      <trkpt lat="44.61047" lon="0.88587">
        <ele>173.17</ele>
        <time>2014-04-13T09:35:47Z</time>
      </trkpt>
      <trkpt lat="44.6104" lon="0.88598">
        <ele>175.1</ele>
        <time>2014-04-13T09:35:51Z</time>
      </trkpt>
      <trkpt lat="44.61039" lon="0.88623">
        <ele>177.02</ele>
        <time>2014-04-13T09:35:56Z</time>
      </trkpt>
      <trkpt lat="44.6104" lon="0.8865">
        <ele>177.02</ele>
        <time>2014-04-13T09:36:00Z</time>
      </trkpt>
      <trkpt lat="44.61042" lon="0.88696">
        <ele>176.06</ele>
        <time>2014-04-13T09:36:05Z</time>
      </trkpt>
      <trkpt lat="44.61034" lon="0.8873">
        <ele>174.62</ele>
        <time>2014-04-13T09:36:09Z</time>
      </trkpt>
      <trkpt lat="44.60988" lon="0.88767">
        <ele>172.69</ele>
        <time>2014-04-13T09:36:17Z</time>
      </trkpt>
      <trkpt lat="44.60956" lon="0.88791">
        <ele>173.17</ele>
        <time>2014-04-13T09:36:24Z</time>
      </trkpt>
      <trkpt lat="44.60918" lon="0.88828">
        <ele>178.46</ele>
        <time>2014-04-13T09:36:34Z</time>
      </trkpt>
      <trkpt lat="44.60869" lon="0.88862">
        <ele>182.79</ele>
        <time>2014-04-13T09:36:46Z</time>
      </trkpt>
      <trkpt lat="44.60824" lon="0.88895">
        <ele>181.83</ele>
        <time>2014-04-13T09:36:56Z</time>
      </trkpt>
      <trkpt lat="44.60806" lon="0.88906">
        <ele>181.83</ele>
        <time>2014-04-13T09:37:00Z</time>
      </trkpt>
      <trkpt lat="44.60785" lon="0.88919">
        <ele>182.79</ele>
        <time>2014-04-13T09:37:04Z</time>
      </trkpt>
      <trkpt lat="44.60765" lon="0.88932">
        <ele>183.27</ele>
        <time>2014-04-13T09:37:08Z</time>
      </trkpt>
      <trkpt lat="44.60735" lon="0.88947">
        <ele>185.67</ele>
        <time>2014-04-13T09:37:14Z</time>
      </trkpt>
      <trkpt lat="44.60722" lon="0.88957">
        <ele>187.59</ele>
        <time>2014-04-13T09:37:17Z</time>
      </trkpt>
      <trkpt lat="44.60713" lon="0.88962">
        <ele>188.08</ele>
        <time>2014-04-13T09:37:19Z</time>
      </trkpt>
      <trkpt lat="44.60702" lon="0.88966">
        <ele>188.56</ele>
        <time>2014-04-13T09:37:21Z</time>
      </trkpt>
      <trkpt lat="44.60631" lon="0.88987">
        <ele>187.59</ele>
        <time>2014-04-13T09:37:34Z</time>
      </trkpt>
      <trkpt lat="44.60546" lon="0.89019">
        <ele>182.31</ele>
        <time>2014-04-13T09:37:47Z</time>
      </trkpt>
      <trkpt lat="44.60534" lon="0.89028">
        <ele>181.35</ele>
        <time>2014-04-13T09:37:49Z</time>
      </trkpt>
      <trkpt lat="44.605" lon="0.89055">
        <ele>179.42</ele>
        <time>2014-04-13T09:37:55Z</time>
      </trkpt>
      <trkpt lat="44.60467" lon="0.8907">
        <ele>177.02</ele>
        <time>2014-04-13T09:38:01Z</time>
      </trkpt>
      <trkpt lat="44.604" lon="0.89117">
        <ele>172.21</ele>
        <time>2014-04-13T09:38:11Z</time>
      </trkpt>
      <trkpt lat="44.60364" lon="0.89138">
        <ele>169.81</ele>
        <time>2014-04-13T09:38:16Z</time>
      </trkpt>
      <trkpt lat="44.60341" lon="0.89153">
        <ele>168.85</ele>
        <time>2014-04-13T09:38:19Z</time>
      </trkpt>
      <trkpt lat="44.60315" lon="0.89184">
        <ele>167.41</ele>
        <time>2014-04-13T09:38:23Z</time>
      </trkpt>
      <trkpt lat="44.603" lon="0.89209">
        <ele>165.96</ele>
        <time>2014-04-13T09:38:26Z</time>
      </trkpt>
      <trkpt lat="44.60245" lon="0.8924">
        <ele>166.93</ele>
        <time>2014-04-13T09:38:35Z</time>
      </trkpt>
      <trkpt lat="44.60195" lon="0.8927">
        <ele>165.48</ele>
        <time>2014-04-13T09:38:44Z</time>
      </trkpt>
      <trkpt lat="44.60174" lon="0.89294">
        <ele>163.56</ele>
        <time>2014-04-13T09:38:48Z</time>
      </trkpt>
      <trkpt lat="44.60174" lon="0.89318">
        <ele>162.6</ele>
        <time>2014-04-13T09:38:52Z</time>
      </trkpt>
      <trkpt lat="44.60209" lon="0.89376">
        <ele>160.68</ele>
        <time>2014-04-13T09:39:00Z</time>
      </trkpt>
      <trkpt lat="44.60253" lon="0.89463">
        <ele>160.2</ele>
        <time>2014-04-13T09:39:12Z</time>
      </trkpt>
      <trkpt lat="44.60263" lon="0.89502">
        <ele>159.24</ele>
        <time>2014-04-13T09:39:17Z</time>
      </trkpt>
      <trkpt lat="44.60266" lon="0.89608">
        <ele>160.68</ele>
        <time>2014-04-13T09:39:30Z</time>
      </trkpt>
      <trkpt lat="44.60266" lon="0.89616">
        <ele>160.68</ele>
        <time>2014-04-13T09:39:31Z</time>
      </trkpt>
      <trkpt lat="44.60258" lon="0.89657">
        <ele>160.2</ele>
        <time>2014-04-13T09:39:38Z</time>
      </trkpt>
      <trkpt lat="44.60254" lon="0.89684">
        <ele>160.2</ele>
        <time>2014-04-13T09:39:42Z</time>
      </trkpt>
      <trkpt lat="44.60249" lon="0.8973">
        <ele>160.68</ele>
        <time>2014-04-13T09:39:52Z</time>
      </trkpt>
      <trkpt lat="44.60262" lon="0.89767">
        <ele>159.24</ele>
        <time>2014-04-13T09:40:02Z</time>
      </trkpt>
      <trkpt lat="44.60259" lon="0.8977">
        <ele>158.75</ele>
        <time>2014-04-13T09:40:03Z</time>
      </trkpt>
      <trkpt lat="44.60209" lon="0.89832">
        <ele>157.79</ele>
        <time>2014-04-13T09:40:17Z</time>
      </trkpt>
      <trkpt lat="44.60186" lon="0.89822">
        <ele>155.39</ele>
        <time>2014-04-13T09:40:23Z</time>
      </trkpt>
      <trkpt lat="44.60148" lon="0.89829">
        <ele>154.91</ele>
        <time>2014-04-13T09:40:32Z</time>
      </trkpt>
      <trkpt lat="44.60137" lon="0.898">
        <ele>155.87</ele>
        <time>2014-04-13T09:40:39Z</time>
      </trkpt>
      <trkpt lat="44.60123" lon="0.8978">
        <ele>157.31</ele>
        <time>2014-04-13T09:40:44Z</time>
      </trkpt>
      <trkpt lat="44.60114" lon="0.8977">
        <ele>159.72</ele>
        <time>2014-04-13T09:40:47Z</time>
      </trkpt>
      <trkpt lat="44.60081" lon="0.8977">
        <ele>163.56</ele>
        <time>2014-04-13T09:40:55Z</time>
      </trkpt>
      <trkpt lat="44.60038" lon="0.89774">
        <ele>165</ele>
        <time>2014-04-13T09:41:07Z</time>
      </trkpt>
      <trkpt lat="44.60036" lon="0.89789">
        <ele>166.45</ele>
        <time>2014-04-13T09:41:11Z</time>
      </trkpt>
      <trkpt lat="44.60033" lon="0.89809">
        <ele>166.93</ele>
        <time>2014-04-13T09:41:14Z</time>
      </trkpt>
      <trkpt lat="44.60027" lon="0.89837">
        <ele>164.52</ele>
        <time>2014-04-13T09:41:18Z</time>
      </trkpt>
      <trkpt lat="44.60012" lon="0.8985">
        <ele>159.24</ele>
        <time>2014-04-13T09:41:24Z</time>
      </trkpt>
      <trkpt lat="44.59971" lon="0.89781">
        <ele>154.91</ele>
        <time>2014-04-13T09:41:40Z</time>
      </trkpt>
      <trkpt lat="44.59961" lon="0.89754">
        <ele>155.87</ele>
        <time>2014-04-13T09:41:46Z</time>
      </trkpt>
      <trkpt lat="44.59938" lon="0.89746">
        <ele>153.95</ele>
        <time>2014-04-13T09:41:52Z</time>
      </trkpt>
      <trkpt lat="44.59921" lon="0.89745">
        <ele>152.99</ele>
        <time>2014-04-13T09:42:01Z</time>
      </trkpt>
      <trkpt lat="44.5992" lon="0.89744">
        <ele>152.99</ele>
        <time>2014-04-13T09:42:02Z</time>
      </trkpt>
      <trkpt lat="44.5991" lon="0.89748">
        <ele>153.47</ele>
        <time>2014-04-13T09:42:07Z</time>
      </trkpt>
      <trkpt lat="44.59903" lon="0.89752">
        <ele>153.47</ele>
        <time>2014-04-13T09:42:10Z</time>
      </trkpt>
      <trkpt lat="44.59874" lon="0.89744">
        <ele>150.58</ele>
        <time>2014-04-13T09:42:21Z</time>
      </trkpt>
      <trkpt lat="44.59868" lon="0.89746">
        <ele>151.06</ele>
        <time>2014-04-13T09:42:32Z</time>
      </trkpt>
      <trkpt lat="44.59869" lon="0.89745">
        <ele>150.1</ele>
        <time>2014-04-13T09:42:45Z</time>
      </trkpt>
      <trkpt lat="44.59869" lon="0.89744">
        <ele>150.1</ele>
        <time>2014-04-13T09:42:58Z</time>
      </trkpt>
      <trkpt lat="44.59871" lon="0.89742">
        <ele>152.03</ele>
        <time>2014-04-13T09:43:18Z</time>
      </trkpt>
      <trkpt lat="44.59868" lon="0.89741">
        <ele>151.54</ele>
        <time>2014-04-13T09:43:40Z</time>
      </trkpt>
      <trkpt lat="44.5987" lon="0.89743">
        <ele>151.06</ele>
        <time>2014-04-13T09:44:00Z</time>
      </trkpt>
      <trkpt lat="44.59867" lon="0.89742">
        <ele>150.1</ele>
        <time>2014-04-13T09:44:19Z</time>
      </trkpt>
      <trkpt lat="44.59867" lon="0.89742">
        <ele>152.51</ele>
        <time>2014-04-13T09:44:37Z</time>
      </trkpt>
      <trkpt lat="44.59866" lon="0.8974">
        <ele>152.51</ele>
        <time>2014-04-13T09:44:58Z</time>
      </trkpt>
      <trkpt lat="44.59865" lon="0.89739">
        <ele>152.99</ele>
        <time>2014-04-13T09:45:13Z</time>
      </trkpt>
      <trkpt lat="44.59865" lon="0.8974">
        <ele>152.51</ele>
        <time>2014-04-13T09:45:42Z</time>
      </trkpt>
      <trkpt lat="44.59867" lon="0.89741">
        <ele>152.99</ele>
        <time>2014-04-13T09:46:03Z</time>
      </trkpt>
      <trkpt lat="44.59868" lon="0.89742">
        <ele>152.03</ele>
        <time>2014-04-13T09:46:19Z</time>
      </trkpt>
      <trkpt lat="44.59868" lon="0.8974">
        <ele>154.91</ele>
        <time>2014-04-13T09:46:49Z</time>
      </trkpt>
      <trkpt lat="44.59868" lon="0.89739">
        <ele>155.87</ele>
        <time>2014-04-13T09:47:05Z</time>
      </trkpt>
      <trkpt lat="44.59869" lon="0.89738">
        <ele>155.39</ele>
        <time>2014-04-13T09:47:30Z</time>
      </trkpt>
      <trkpt lat="44.59869" lon="0.89737">
        <ele>154.91</ele>
        <time>2014-04-13T09:47:50Z</time>
      </trkpt>
      <trkpt lat="44.59869" lon="0.89738">
        <ele>156.83</ele>
        <time>2014-04-13T09:48:12Z</time>
      </trkpt>
      <trkpt lat="44.59866" lon="0.89741">
        <ele>152.03</ele>
        <time>2014-04-13T09:48:36Z</time>
      </trkpt>
      <trkpt lat="44.59864" lon="0.89739">
        <ele>152.51</ele>
        <time>2014-04-13T09:49:08Z</time>
      </trkpt>
    </trkseg>
  </trk>
</gpx>